<?xml version="1.0" encoding="UTF-8" standalone="no" ?>
<gpx xmlns="http://www.topografix.com/GPX/1/1" xmlns:xsi="http://www.w3.org/2001/XMLSchema-instance" xsi:schemaLocation="http://www.topografix.com/GPX/1/1 http://www.topografix.com/GPX/1/1/gpx.xsd" version="1.1" creator="VisuGPX - https://www.visugpx.com">
  <metadata>
    <name>117_Circuit 46 km Les Herbiers_Les Herbiers édité par cth85.com</name>
    <desc><![CDATA[Circuit de 63 km passant par:
Les Herbiers
D11 Mesnard la Barotière
D53 Vendrennes
Saint André Goule d'Oie
D11 Saint Fulgent
D37 Bazoges en Paillers
D37 Les Landes Genusson
D72, D53 Saint Martin des Tilleuls
D72, D111 La Verrie
au rond point de l'autoroute, direction la burmière
Chambretaud
Les Enfreins
à droite, coup de brisque
Les Herbiers.]]></desc>
  </metadata>
  <trk>
    <name><![CDATA[46_117 on cth85.com]]></name>
    <extensions>
      <line xmlns="http://www.topografix.com/GPX/gpx_style/0/2">
        <color>0000FF</color>
        <width>4</width>
      </line>
    </extensions>
    <trkseg>
      <trkpt lat="46.8655" lon="-1.00598">
        <ele>117</ele>
        <time>2010-01-01T00:00:00Z</time>
      </trkpt>
      <trkpt lat="46.86551" lon="-1.00594">
        <ele>117</ele>
        <time>2010-01-01T00:00:00Z</time>
      </trkpt>
      <trkpt lat="46.86595" lon="-1.00621">
        <ele>116</ele>
        <time>2010-01-01T00:00:08Z</time>
      </trkpt>
      <trkpt lat="46.86721" lon="-1.00665">
        <ele>111</ele>
        <time>2010-01-01T00:00:30Z</time>
      </trkpt>
      <trkpt lat="46.86764" lon="-1.00648">
        <ele>111</ele>
        <time>2010-01-01T00:00:37Z</time>
      </trkpt>
      <trkpt lat="46.86834" lon="-1.0063">
        <ele>112</ele>
        <time>2010-01-01T00:00:49Z</time>
      </trkpt>
      <trkpt lat="46.86902" lon="-1.00643">
        <ele>111</ele>
        <time>2010-01-01T00:01:00Z</time>
      </trkpt>
      <trkpt lat="46.86948" lon="-1.00668">
        <ele>109</ele>
        <time>2010-01-01T00:01:08Z</time>
      </trkpt>
      <trkpt lat="46.8698" lon="-1.00669">
        <ele>108</ele>
        <time>2010-01-01T00:01:14Z</time>
      </trkpt>
      <trkpt lat="46.87042" lon="-1.00732">
        <ele>105</ele>
        <time>2010-01-01T00:01:26Z</time>
      </trkpt>
      <trkpt lat="46.87045" lon="-1.00747">
        <ele>104</ele>
        <time>2010-01-01T00:01:28Z</time>
      </trkpt>
      <trkpt lat="46.87065" lon="-1.00757">
        <ele>104</ele>
        <time>2010-01-01T00:01:32Z</time>
      </trkpt>
      <trkpt lat="46.87095" lon="-1.00763">
        <ele>103</ele>
        <time>2010-01-01T00:01:37Z</time>
      </trkpt>
      <trkpt lat="46.87114" lon="-1.00778">
        <ele>104</ele>
        <time>2010-01-01T00:01:40Z</time>
      </trkpt>
      <trkpt lat="46.87141" lon="-1.0082">
        <ele>105</ele>
        <time>2010-01-01T00:01:47Z</time>
      </trkpt>
      <trkpt lat="46.87154" lon="-1.0083">
        <ele>106</ele>
        <time>2010-01-01T00:01:49Z</time>
      </trkpt>
      <trkpt lat="46.87187" lon="-1.00886">
        <ele>107</ele>
        <time>2010-01-01T00:01:58Z</time>
      </trkpt>
      <trkpt lat="46.87201" lon="-1.00905">
        <ele>108</ele>
        <time>2010-01-01T00:02:01Z</time>
      </trkpt>
      <trkpt lat="46.87226" lon="-1.00973">
        <ele>108</ele>
        <time>2010-01-01T00:02:10Z</time>
      </trkpt>
      <trkpt lat="46.8726" lon="-1.01108">
        <ele>108</ele>
        <time>2010-01-01T00:02:26Z</time>
      </trkpt>
      <trkpt lat="46.87296" lon="-1.01212">
        <ele>109</ele>
        <time>2010-01-01T00:02:39Z</time>
      </trkpt>
      <trkpt lat="46.87287" lon="-1.01233">
        <ele>109</ele>
        <time>2010-01-01T00:02:42Z</time>
      </trkpt>
      <trkpt lat="46.87281" lon="-1.01258">
        <ele>110</ele>
        <time>2010-01-01T00:02:45Z</time>
      </trkpt>
      <trkpt lat="46.8728" lon="-1.01273">
        <ele>110</ele>
        <time>2010-01-01T00:02:47Z</time>
      </trkpt>
      <trkpt lat="46.87286" lon="-1.01273">
        <ele>110</ele>
        <time>2010-01-01T00:02:48Z</time>
      </trkpt>
      <trkpt lat="46.87297" lon="-1.01281">
        <ele>110</ele>
        <time>2010-01-01T00:02:50Z</time>
      </trkpt>
      <trkpt lat="46.87305" lon="-1.01295">
        <ele>111</ele>
        <time>2010-01-01T00:02:52Z</time>
      </trkpt>
      <trkpt lat="46.87324" lon="-1.01393">
        <ele>113</ele>
        <time>2010-01-01T00:03:04Z</time>
      </trkpt>
      <trkpt lat="46.87322" lon="-1.01396">
        <ele>113</ele>
        <time>2010-01-01T00:03:04Z</time>
      </trkpt>
      <trkpt lat="46.87322" lon="-1.01399">
        <ele>113</ele>
        <time>2010-01-01T00:03:05Z</time>
      </trkpt>
      <trkpt lat="46.87318" lon="-1.01397">
        <ele>113</ele>
        <time>2010-01-01T00:03:05Z</time>
      </trkpt>
      <trkpt lat="46.87306" lon="-1.014">
        <ele>113</ele>
        <time>2010-01-01T00:03:07Z</time>
      </trkpt>
      <trkpt lat="46.87305" lon="-1.014">
        <ele>113</ele>
        <time>2010-01-01T00:03:07Z</time>
      </trkpt>
      <trkpt lat="46.87318" lon="-1.01397">
        <ele>113</ele>
        <time>2010-01-01T00:03:10Z</time>
      </trkpt>
      <trkpt lat="46.87323" lon="-1.01401">
        <ele>113</ele>
        <time>2010-01-01T00:03:11Z</time>
      </trkpt>
      <trkpt lat="46.87325" lon="-1.01401">
        <ele>114</ele>
        <time>2010-01-01T00:03:11Z</time>
      </trkpt>
      <trkpt lat="46.87328" lon="-1.01409">
        <ele>114</ele>
        <time>2010-01-01T00:03:12Z</time>
      </trkpt>
      <trkpt lat="46.87342" lon="-1.01482">
        <ele>115</ele>
        <time>2010-01-01T00:03:21Z</time>
      </trkpt>
      <trkpt lat="46.87328" lon="-1.01492">
        <ele>115</ele>
        <time>2010-01-01T00:03:23Z</time>
      </trkpt>
      <trkpt lat="46.87283" lon="-1.0151">
        <ele>115</ele>
        <time>2010-01-01T00:03:31Z</time>
      </trkpt>
      <trkpt lat="46.87238" lon="-1.01523">
        <ele>114</ele>
        <time>2010-01-01T00:03:39Z</time>
      </trkpt>
      <trkpt lat="46.87237" lon="-1.01523">
        <ele>114</ele>
        <time>2010-01-01T00:03:39Z</time>
      </trkpt>
      <trkpt lat="46.87185" lon="-1.01532">
        <ele>112</ele>
        <time>2010-01-01T00:03:48Z</time>
      </trkpt>
      <trkpt lat="46.87108" lon="-1.0153">
        <ele>108</ele>
        <time>2010-01-01T00:04:00Z</time>
      </trkpt>
      <trkpt lat="46.87074" lon="-1.01709">
        <ele>110</ele>
        <time>2010-01-01T00:04:22Z</time>
      </trkpt>
      <trkpt lat="46.87013" lon="-1.02086">
        <ele>107</ele>
        <time>2010-01-01T00:05:06Z</time>
      </trkpt>
      <trkpt lat="46.87009" lon="-1.0212">
        <ele>107</ele>
        <time>2010-01-01T00:05:10Z</time>
      </trkpt>
      <trkpt lat="46.87006" lon="-1.02159">
        <ele>106</ele>
        <time>2010-01-01T00:05:14Z</time>
      </trkpt>
      <trkpt lat="46.87007" lon="-1.02236">
        <ele>106</ele>
        <time>2010-01-01T00:05:23Z</time>
      </trkpt>
      <trkpt lat="46.87017" lon="-1.02314">
        <ele>105</ele>
        <time>2010-01-01T00:05:32Z</time>
      </trkpt>
      <trkpt lat="46.87031" lon="-1.02398">
        <ele>104</ele>
        <time>2010-01-01T00:05:42Z</time>
      </trkpt>
      <trkpt lat="46.87057" lon="-1.02471">
        <ele>102</ele>
        <time>2010-01-01T00:05:51Z</time>
      </trkpt>
      <trkpt lat="46.87103" lon="-1.0259">
        <ele>100</ele>
        <time>2010-01-01T00:06:07Z</time>
      </trkpt>
      <trkpt lat="46.87116" lon="-1.02635">
        <ele>99</ele>
        <time>2010-01-01T00:06:12Z</time>
      </trkpt>
      <trkpt lat="46.87144" lon="-1.02669">
        <ele>98.2</ele>
        <time>2010-01-01T00:06:20Z</time>
      </trkpt>
      <trkpt lat="46.87177" lon="-1.02679">
        <ele>99.2</ele>
      </trkpt>
      <trkpt lat="46.87184" lon="-1.02692">
        <ele>99.1</ele>
      </trkpt>
      <trkpt lat="46.87252" lon="-1.02636">
        <ele>102.1</ele>
      </trkpt>
      <trkpt lat="46.87445" lon="-1.02486">
        <ele>104.5</ele>
      </trkpt>
      <trkpt lat="46.87486" lon="-1.02458">
        <ele>106</ele>
      </trkpt>
      <trkpt lat="46.87504" lon="-1.02437">
        <ele>107</ele>
      </trkpt>
      <trkpt lat="46.8752" lon="-1.02437">
        <ele>107</ele>
      </trkpt>
      <trkpt lat="46.87533" lon="-1.02458">
        <ele>106.5</ele>
      </trkpt>
      <trkpt lat="46.87535" lon="-1.02481">
        <ele>106</ele>
      </trkpt>
      <trkpt lat="46.8754" lon="-1.02518">
        <ele>105.6</ele>
      </trkpt>
      <trkpt lat="46.87581" lon="-1.02631">
        <ele>105.7</ele>
      </trkpt>
      <trkpt lat="46.87598" lon="-1.02664">
        <ele>105.7</ele>
      </trkpt>
      <trkpt lat="46.87603" lon="-1.02665">
        <ele>106.2</ele>
      </trkpt>
      <trkpt lat="46.8761" lon="-1.02667">
        <ele>106.8</ele>
      </trkpt>
      <trkpt lat="46.87613" lon="-1.0267">
        <ele>107.3</ele>
      </trkpt>
      <trkpt lat="46.87615" lon="-1.02676">
        <ele>107.5</ele>
      </trkpt>
      <trkpt lat="46.87614" lon="-1.02685">
        <ele>107.4</ele>
      </trkpt>
      <trkpt lat="46.87621" lon="-1.02698">
        <ele>108.4</ele>
      </trkpt>
      <trkpt lat="46.87668" lon="-1.02793">
        <ele>111.1</ele>
      </trkpt>
      <trkpt lat="46.87692" lon="-1.02832">
        <ele>112.8</ele>
      </trkpt>
      <trkpt lat="46.87737" lon="-1.029">
        <ele>115.3</ele>
      </trkpt>
      <trkpt lat="46.87798" lon="-1.02974">
        <ele>116.7</ele>
      </trkpt>
      <trkpt lat="46.87838" lon="-1.03023">
        <ele>115.2</ele>
      </trkpt>
      <trkpt lat="46.87863" lon="-1.03063">
        <ele>114</ele>
      </trkpt>
      <trkpt lat="46.87892" lon="-1.03118">
        <ele>113</ele>
      </trkpt>
      <trkpt lat="46.87924" lon="-1.03172">
        <ele>112.2</ele>
      </trkpt>
      <trkpt lat="46.87949" lon="-1.03213">
        <ele>111.8</ele>
      </trkpt>
      <trkpt lat="46.87971" lon="-1.03244">
        <ele>110.3</ele>
      </trkpt>
      <trkpt lat="46.87989" lon="-1.03266">
        <ele>110.2</ele>
      </trkpt>
      <trkpt lat="46.88007" lon="-1.03285">
        <ele>109.6</ele>
      </trkpt>
      <trkpt lat="46.88017" lon="-1.03286">
        <ele>109.5</ele>
      </trkpt>
      <trkpt lat="46.88031" lon="-1.03287">
        <ele>109.3</ele>
      </trkpt>
      <trkpt lat="46.88042" lon="-1.03292">
        <ele>109.2</ele>
      </trkpt>
      <trkpt lat="46.8805" lon="-1.03305">
        <ele>109.2</ele>
      </trkpt>
      <trkpt lat="46.88052" lon="-1.03323">
        <ele>109.2</ele>
      </trkpt>
      <trkpt lat="46.88051" lon="-1.03336">
        <ele>109.3</ele>
      </trkpt>
      <trkpt lat="46.88053" lon="-1.03343">
        <ele>109.1</ele>
      </trkpt>
      <trkpt lat="46.88059" lon="-1.03355">
        <ele>109</ele>
      </trkpt>
      <trkpt lat="46.8807" lon="-1.0337">
        <ele>109</ele>
      </trkpt>
      <trkpt lat="46.88087" lon="-1.03388">
        <ele>109</ele>
      </trkpt>
      <trkpt lat="46.88126" lon="-1.03417">
        <ele>108.5</ele>
      </trkpt>
      <trkpt lat="46.88168" lon="-1.03447">
        <ele>108.1</ele>
      </trkpt>
      <trkpt lat="46.88212" lon="-1.03479">
        <ele>108.1</ele>
      </trkpt>
      <trkpt lat="46.88262" lon="-1.03521">
        <ele>107</ele>
      </trkpt>
      <trkpt lat="46.88302" lon="-1.03561">
        <ele>107</ele>
      </trkpt>
      <trkpt lat="46.88361" lon="-1.03622">
        <ele>108.6</ele>
      </trkpt>
      <trkpt lat="46.88417" lon="-1.03679">
        <ele>109</ele>
      </trkpt>
      <trkpt lat="46.88479" lon="-1.03744">
        <ele>109.1</ele>
      </trkpt>
      <trkpt lat="46.88534" lon="-1.03799">
        <ele>108.2</ele>
      </trkpt>
      <trkpt lat="46.88574" lon="-1.03839">
        <ele>106.9</ele>
      </trkpt>
      <trkpt lat="46.88679" lon="-1.03944">
        <ele>107</ele>
      </trkpt>
      <trkpt lat="46.88705" lon="-1.03973">
        <ele>107</ele>
      </trkpt>
      <trkpt lat="46.88715" lon="-1.03974">
        <ele>107</ele>
      </trkpt>
      <trkpt lat="46.88723" lon="-1.03974">
        <ele>107.1</ele>
      </trkpt>
      <trkpt lat="46.88732" lon="-1.03972">
        <ele>107</ele>
      </trkpt>
      <trkpt lat="46.88738" lon="-1.03971">
        <ele>106.9</ele>
      </trkpt>
      <trkpt lat="46.88745" lon="-1.03977">
        <ele>107</ele>
      </trkpt>
      <trkpt lat="46.88749" lon="-1.03983">
        <ele>107</ele>
      </trkpt>
      <trkpt lat="46.8875" lon="-1.04003">
        <ele>107</ele>
      </trkpt>
      <trkpt lat="46.88745" lon="-1.04024">
        <ele>107</ele>
      </trkpt>
      <trkpt lat="46.88746" lon="-1.04038">
        <ele>106.9</ele>
      </trkpt>
      <trkpt lat="46.88753" lon="-1.04056">
        <ele>107.1</ele>
      </trkpt>
      <trkpt lat="46.88785" lon="-1.0415">
        <ele>107.7</ele>
      </trkpt>
      <trkpt lat="46.88807" lon="-1.04219">
        <ele>107.1</ele>
      </trkpt>
      <trkpt lat="46.88844" lon="-1.04333">
        <ele>104.4</ele>
      </trkpt>
      <trkpt lat="46.88876" lon="-1.04439">
        <ele>103.4</ele>
      </trkpt>
      <trkpt lat="46.88923" lon="-1.04579">
        <ele>105</ele>
      </trkpt>
      <trkpt lat="46.88945" lon="-1.04648">
        <ele>105</ele>
      </trkpt>
      <trkpt lat="46.88973" lon="-1.04707">
        <ele>104</ele>
      </trkpt>
      <trkpt lat="46.89035" lon="-1.04791">
        <ele>103.4</ele>
      </trkpt>
      <trkpt lat="46.89105" lon="-1.04894">
        <ele>103</ele>
      </trkpt>
      <trkpt lat="46.89145" lon="-1.04955">
        <ele>104</ele>
      </trkpt>
      <trkpt lat="46.89186" lon="-1.05026">
        <ele>105</ele>
      </trkpt>
      <trkpt lat="46.89231" lon="-1.05129">
        <ele>104</ele>
      </trkpt>
      <trkpt lat="46.8927" lon="-1.05215">
        <ele>102.8</ele>
      </trkpt>
      <trkpt lat="46.89302" lon="-1.05287">
        <ele>102.9</ele>
      </trkpt>
      <trkpt lat="46.89352" lon="-1.05412">
        <ele>104</ele>
      </trkpt>
      <trkpt lat="46.89385" lon="-1.05513">
        <ele>104</ele>
      </trkpt>
      <trkpt lat="46.8944" lon="-1.05668">
        <ele>102</ele>
      </trkpt>
      <trkpt lat="46.89491" lon="-1.05817">
        <ele>101</ele>
      </trkpt>
      <trkpt lat="46.89536" lon="-1.05946">
        <ele>99</ele>
      </trkpt>
      <trkpt lat="46.89605" lon="-1.06139">
        <ele>95</ele>
      </trkpt>
      <trkpt lat="46.89676" lon="-1.06349">
        <ele>92.4</ele>
      </trkpt>
      <trkpt lat="46.89699" lon="-1.06413">
        <ele>90</ele>
      </trkpt>
      <trkpt lat="46.89736" lon="-1.06487">
        <ele>89.5</ele>
      </trkpt>
      <trkpt lat="46.89793" lon="-1.06572">
        <ele>91.6</ele>
      </trkpt>
      <trkpt lat="46.89843" lon="-1.06651">
        <ele>94.6</ele>
      </trkpt>
      <trkpt lat="46.89928" lon="-1.06779">
        <ele>95</ele>
      </trkpt>
      <trkpt lat="46.9002" lon="-1.06902">
        <ele>98</ele>
      </trkpt>
      <trkpt lat="46.90106" lon="-1.07008">
        <ele>100</ele>
      </trkpt>
      <trkpt lat="46.90158" lon="-1.07086">
        <ele>101.1</ele>
      </trkpt>
      <trkpt lat="46.90187" lon="-1.07171">
        <ele>102</ele>
      </trkpt>
      <trkpt lat="46.90196" lon="-1.07223">
        <ele>102.1</ele>
      </trkpt>
      <trkpt lat="46.90211" lon="-1.07251">
        <ele>102</ele>
      </trkpt>
      <trkpt lat="46.9022" lon="-1.07258">
        <ele>102.3</ele>
      </trkpt>
      <trkpt lat="46.90228" lon="-1.07265">
        <ele>102.4</ele>
      </trkpt>
      <trkpt lat="46.90238" lon="-1.07274">
        <ele>102.4</ele>
      </trkpt>
      <trkpt lat="46.90247" lon="-1.07288">
        <ele>102.2</ele>
      </trkpt>
      <trkpt lat="46.90246" lon="-1.0731">
        <ele>102.2</ele>
      </trkpt>
      <trkpt lat="46.90237" lon="-1.07333">
        <ele>102</ele>
      </trkpt>
      <trkpt lat="46.90234" lon="-1.07352">
        <ele>101.7</ele>
      </trkpt>
      <trkpt lat="46.90257" lon="-1.07456">
        <ele>101</ele>
      </trkpt>
      <trkpt lat="46.90298" lon="-1.07688">
        <ele>98.3</ele>
      </trkpt>
      <trkpt lat="46.90333" lon="-1.0789">
        <ele>95</ele>
      </trkpt>
      <trkpt lat="46.90359" lon="-1.08047">
        <ele>94</ele>
      </trkpt>
      <trkpt lat="46.90373" lon="-1.08148">
        <ele>94.4</ele>
      </trkpt>
      <trkpt lat="46.90381" lon="-1.08337">
        <ele>93</ele>
      </trkpt>
      <trkpt lat="46.90382" lon="-1.08486">
        <ele>91.9</ele>
      </trkpt>
      <trkpt lat="46.90391" lon="-1.08779">
        <ele>91.1</ele>
      </trkpt>
      <trkpt lat="46.90398" lon="-1.08986">
        <ele>89.3</ele>
      </trkpt>
      <trkpt lat="46.90402" lon="-1.09175">
        <ele>87.8</ele>
      </trkpt>
      <trkpt lat="46.90408" lon="-1.09298">
        <ele>88.4</ele>
      </trkpt>
      <trkpt lat="46.90416" lon="-1.09327">
        <ele>88</ele>
      </trkpt>
      <trkpt lat="46.90424" lon="-1.09324">
        <ele>88</ele>
      </trkpt>
      <trkpt lat="46.90426" lon="-1.09344">
        <ele>88</ele>
      </trkpt>
      <trkpt lat="46.90424" lon="-1.09353">
        <ele>88</ele>
      </trkpt>
      <trkpt lat="46.90418" lon="-1.09357">
        <ele>88</ele>
      </trkpt>
      <trkpt lat="46.90414" lon="-1.0937">
        <ele>88</ele>
      </trkpt>
      <trkpt lat="46.90411" lon="-1.09388">
        <ele>87.8</ele>
      </trkpt>
      <trkpt lat="46.90417" lon="-1.09547">
        <ele>87</ele>
      </trkpt>
      <trkpt lat="46.9042" lon="-1.09595">
        <ele>86.8</ele>
      </trkpt>
      <trkpt lat="46.9043" lon="-1.09676">
        <ele>84.7</ele>
      </trkpt>
      <trkpt lat="46.90448" lon="-1.0974">
        <ele>85.8</ele>
      </trkpt>
      <trkpt lat="46.90477" lon="-1.09818">
        <ele>87.5</ele>
      </trkpt>
      <trkpt lat="46.90514" lon="-1.09887">
        <ele>87.6</ele>
      </trkpt>
      <trkpt lat="46.90572" lon="-1.09962">
        <ele>88.3</ele>
      </trkpt>
      <trkpt lat="46.9063" lon="-1.10005">
        <ele>89</ele>
      </trkpt>
      <trkpt lat="46.90677" lon="-1.10031">
        <ele>89.4</ele>
      </trkpt>
      <trkpt lat="46.90732" lon="-1.10043">
        <ele>90.7</ele>
      </trkpt>
      <trkpt lat="46.90794" lon="-1.10055">
        <ele>93.6</ele>
      </trkpt>
      <trkpt lat="46.90841" lon="-1.1006">
        <ele>94.3</ele>
      </trkpt>
      <trkpt lat="46.90859" lon="-1.10059">
        <ele>94.9</ele>
      </trkpt>
      <trkpt lat="46.90871" lon="-1.10044">
        <ele>94.7</ele>
      </trkpt>
      <trkpt lat="46.90882" lon="-1.1004">
        <ele>94.9</ele>
      </trkpt>
      <trkpt lat="46.90888" lon="-1.10054">
        <ele>95</ele>
      </trkpt>
      <trkpt lat="46.90889" lon="-1.10067">
        <ele>95</ele>
      </trkpt>
      <trkpt lat="46.90882" lon="-1.10085">
        <ele>95.1</ele>
      </trkpt>
      <trkpt lat="46.90874" lon="-1.10095">
        <ele>95.4</ele>
      </trkpt>
      <trkpt lat="46.90868" lon="-1.10121">
        <ele>96</ele>
      </trkpt>
      <trkpt lat="46.9085" lon="-1.10254">
        <ele>97.7</ele>
      </trkpt>
      <trkpt lat="46.90827" lon="-1.10453">
        <ele>96.9</ele>
      </trkpt>
      <trkpt lat="46.90798" lon="-1.10689">
        <ele>95.7</ele>
      </trkpt>
      <trkpt lat="46.90778" lon="-1.10864">
        <ele>94</ele>
      </trkpt>
      <trkpt lat="46.90763" lon="-1.11011">
        <ele>92.8</ele>
      </trkpt>
      <trkpt lat="46.90743" lon="-1.11239">
        <ele>90.7</ele>
      </trkpt>
      <trkpt lat="46.90723" lon="-1.1152">
        <ele>85</ele>
      </trkpt>
      <trkpt lat="46.907" lon="-1.11851">
        <ele>79</ele>
      </trkpt>
      <trkpt lat="46.90677" lon="-1.12168">
        <ele>77.6</ele>
      </trkpt>
      <trkpt lat="46.90668" lon="-1.12303">
        <ele>79</ele>
      </trkpt>
      <trkpt lat="46.90656" lon="-1.12468">
        <ele>81.3</ele>
      </trkpt>
      <trkpt lat="46.90648" lon="-1.1262">
        <ele>84.7</ele>
      </trkpt>
      <trkpt lat="46.90644" lon="-1.12662">
        <ele>85.5</ele>
      </trkpt>
      <trkpt lat="46.90636" lon="-1.1277">
        <ele>86</ele>
      </trkpt>
      <trkpt lat="46.90622" lon="-1.12951">
        <ele>80.8</ele>
      </trkpt>
      <trkpt lat="46.90617" lon="-1.1305">
        <ele>77.5</ele>
        <time>2010-01-01T01:13:11Z</time>
      </trkpt>
      <trkpt lat="46.90624" lon="-1.13085">
        <ele>78</ele>
        <time>2010-01-01T01:13:15Z</time>
      </trkpt>
      <trkpt lat="46.90641" lon="-1.13121">
        <ele>79</ele>
        <time>2010-01-01T01:13:20Z</time>
      </trkpt>
      <trkpt lat="46.90666" lon="-1.13167">
        <ele>82</ele>
        <time>2010-01-01T01:13:26Z</time>
      </trkpt>
      <trkpt lat="46.90732" lon="-1.13276">
        <ele>86</ele>
        <time>2010-01-01T01:13:43Z</time>
      </trkpt>
      <trkpt lat="46.90766" lon="-1.13345">
        <ele>87</ele>
        <time>2010-01-01T01:13:53Z</time>
      </trkpt>
      <trkpt lat="46.90775" lon="-1.13386">
        <ele>87</ele>
        <time>2010-01-01T01:13:57Z</time>
      </trkpt>
      <trkpt lat="46.90778" lon="-1.13414">
        <ele>87</ele>
        <time>2010-01-01T01:14:01Z</time>
      </trkpt>
      <trkpt lat="46.90786" lon="-1.13414">
        <ele>87</ele>
        <time>2010-01-01T01:14:02Z</time>
      </trkpt>
      <trkpt lat="46.90852" lon="-1.13386">
        <ele>86</ele>
        <time>2010-01-01T01:14:14Z</time>
      </trkpt>
      <trkpt lat="46.90951" lon="-1.13328">
        <ele>84</ele>
        <time>2010-01-01T01:14:31Z</time>
      </trkpt>
      <trkpt lat="46.91007" lon="-1.13303">
        <ele>82</ele>
        <time>2010-01-01T01:14:41Z</time>
      </trkpt>
      <trkpt lat="46.91036" lon="-1.13299">
        <ele>82</ele>
        <time>2010-01-01T01:14:46Z</time>
      </trkpt>
      <trkpt lat="46.91052" lon="-1.133">
        <ele>82</ele>
        <time>2010-01-01T01:14:49Z</time>
      </trkpt>
      <trkpt lat="46.91258" lon="-1.13355">
        <ele>80</ele>
        <time>2010-01-01T01:15:24Z</time>
      </trkpt>
      <trkpt lat="46.91457" lon="-1.13491">
        <ele>84</ele>
        <time>2010-01-01T01:16:00Z</time>
      </trkpt>
      <trkpt lat="46.91487" lon="-1.13501">
        <ele>85</ele>
        <time>2010-01-01T01:16:05Z</time>
      </trkpt>
      <trkpt lat="46.91506" lon="-1.13501">
        <ele>85</ele>
        <time>2010-01-01T01:16:08Z</time>
      </trkpt>
      <trkpt lat="46.91539" lon="-1.13496">
        <ele>85</ele>
        <time>2010-01-01T01:16:14Z</time>
      </trkpt>
      <trkpt lat="46.91675" lon="-1.13455">
        <ele>88</ele>
        <time>2010-01-01T01:16:37Z</time>
      </trkpt>
      <trkpt lat="46.91727" lon="-1.13432">
        <ele>88</ele>
        <time>2010-01-01T01:16:46Z</time>
      </trkpt>
      <trkpt lat="46.91892" lon="-1.13288">
        <ele>87</ele>
        <time>2010-01-01T01:17:18Z</time>
      </trkpt>
      <trkpt lat="46.92119" lon="-1.13162">
        <ele>88</ele>
        <time>2010-01-01T01:17:59Z</time>
      </trkpt>
      <trkpt lat="46.92228" lon="-1.13141">
        <ele>87</ele>
        <time>2010-01-01T01:18:17Z</time>
      </trkpt>
      <trkpt lat="46.92261" lon="-1.13139">
        <ele>88</ele>
        <time>2010-01-01T01:18:23Z</time>
      </trkpt>
      <trkpt lat="46.92277" lon="-1.13141">
        <ele>88</ele>
        <time>2010-01-01T01:18:25Z</time>
      </trkpt>
      <trkpt lat="46.92308" lon="-1.13151">
        <ele>88</ele>
        <time>2010-01-01T01:18:31Z</time>
      </trkpt>
      <trkpt lat="46.92536" lon="-1.13238">
        <ele>90</ele>
        <time>2010-01-01T01:19:10Z</time>
      </trkpt>
      <trkpt lat="46.92548" lon="-1.13241">
        <ele>90</ele>
        <time>2010-01-01T01:19:12Z</time>
      </trkpt>
      <trkpt lat="46.92609" lon="-1.13239">
        <ele>91</ele>
        <time>2010-01-01T01:19:22Z</time>
      </trkpt>
      <trkpt lat="46.92626" lon="-1.13233">
        <ele>91</ele>
        <time>2010-01-01T01:19:25Z</time>
      </trkpt>
      <trkpt lat="46.92653" lon="-1.1322">
        <ele>90</ele>
        <time>2010-01-01T01:19:30Z</time>
      </trkpt>
      <trkpt lat="46.92674" lon="-1.13206">
        <ele>90</ele>
        <time>2010-01-01T01:19:34Z</time>
      </trkpt>
      <trkpt lat="46.92709" lon="-1.13174">
        <ele>88</ele>
        <time>2010-01-01T01:19:40Z</time>
      </trkpt>
      <trkpt lat="46.92722" lon="-1.13156">
        <ele>88</ele>
        <time>2010-01-01T01:19:43Z</time>
      </trkpt>
      <trkpt lat="46.92746" lon="-1.1312">
        <ele>87</ele>
        <time>2010-01-01T01:19:49Z</time>
      </trkpt>
      <trkpt lat="46.92818" lon="-1.12989">
        <ele>86</ele>
        <time>2010-01-01T01:20:08Z</time>
      </trkpt>
      <trkpt lat="46.92857" lon="-1.1294">
        <ele>87</ele>
        <time>2010-01-01T01:20:17Z</time>
      </trkpt>
      <trkpt lat="46.92984" lon="-1.12874">
        <ele>91</ele>
        <time>2010-01-01T01:20:39Z</time>
      </trkpt>
      <trkpt lat="46.92983" lon="-1.12874">
        <ele>91</ele>
        <time>2010-01-01T01:20:40Z</time>
      </trkpt>
      <trkpt lat="46.93144" lon="-1.12791">
        <ele>92</ele>
        <time>2010-01-01T01:21:08Z</time>
      </trkpt>
      <trkpt lat="46.93169" lon="-1.12788">
        <ele>92</ele>
        <time>2010-01-01T01:21:12Z</time>
      </trkpt>
      <trkpt lat="46.93205" lon="-1.12789">
        <ele>93</ele>
        <time>2010-01-01T01:21:18Z</time>
      </trkpt>
      <trkpt lat="46.93333" lon="-1.128">
        <ele>94</ele>
        <time>2010-01-01T01:21:40Z</time>
      </trkpt>
      <trkpt lat="46.93546" lon="-1.12813">
        <ele>99</ele>
        <time>2010-01-01T01:22:15Z</time>
      </trkpt>
      <trkpt lat="46.93751" lon="-1.12831">
        <ele>101</ele>
        <time>2010-01-01T01:22:49Z</time>
      </trkpt>
      <trkpt lat="46.93779" lon="-1.12831">
        <ele>101</ele>
        <time>2010-01-01T01:22:54Z</time>
      </trkpt>
      <trkpt lat="46.9389" lon="-1.12796">
        <ele>100</ele>
        <time>2010-01-01T01:23:13Z</time>
      </trkpt>
      <trkpt lat="46.94008" lon="-1.12753">
        <ele>100</ele>
        <time>2010-01-01T01:23:33Z</time>
      </trkpt>
      <trkpt lat="46.94129" lon="-1.12718">
        <ele>99</ele>
        <time>2010-01-01T01:23:54Z</time>
      </trkpt>
      <trkpt lat="46.94838" lon="-1.12477">
        <ele>102</ele>
        <time>2010-01-01T01:25:55Z</time>
      </trkpt>
      <trkpt lat="46.94969" lon="-1.12435">
        <ele>104</ele>
        <time>2010-01-01T01:26:18Z</time>
      </trkpt>
      <trkpt lat="46.95118" lon="-1.12382">
        <ele>107</ele>
        <time>2010-01-01T01:26:43Z</time>
      </trkpt>
      <trkpt lat="46.95352" lon="-1.12304">
        <ele>109</ele>
        <time>2010-01-01T01:27:23Z</time>
      </trkpt>
      <trkpt lat="46.95937" lon="-1.12102">
        <ele>105</ele>
        <time>2010-01-01T01:29:03Z</time>
      </trkpt>
      <trkpt lat="46.95982" lon="-1.1209">
        <ele>106</ele>
        <time>2010-01-01T01:29:11Z</time>
      </trkpt>
      <trkpt lat="46.96146" lon="-1.12033">
        <ele>106</ele>
        <time>2010-01-01T01:29:39Z</time>
      </trkpt>
      <trkpt lat="46.96145" lon="-1.12">
        <ele>106</ele>
        <time>2010-01-01T01:29:43Z</time>
      </trkpt>
      <trkpt lat="46.96146" lon="-1.11954">
        <ele>106</ele>
        <time>2010-01-01T01:29:48Z</time>
      </trkpt>
      <trkpt lat="46.96149" lon="-1.11934">
        <ele>106</ele>
        <time>2010-01-01T01:29:51Z</time>
      </trkpt>
      <trkpt lat="46.96155" lon="-1.11834">
        <ele>107</ele>
        <time>2010-01-01T01:30:02Z</time>
      </trkpt>
      <trkpt lat="46.96146" lon="-1.11782">
        <ele>107</ele>
        <time>2010-01-01T01:30:08Z</time>
      </trkpt>
      <trkpt lat="46.96194" lon="-1.11729">
        <ele>107</ele>
        <time>2010-01-01T01:30:18Z</time>
      </trkpt>
      <trkpt lat="46.96234" lon="-1.11683">
        <ele>107</ele>
        <time>2010-01-01T01:30:27Z</time>
      </trkpt>
      <trkpt lat="46.9625" lon="-1.11709">
        <ele>107</ele>
        <time>2010-01-01T01:30:31Z</time>
      </trkpt>
      <trkpt lat="46.96273" lon="-1.11633">
        <ele>107</ele>
        <time>2010-01-01T01:30:40Z</time>
      </trkpt>
      <trkpt lat="46.96301" lon="-1.11516">
        <ele>108</ele>
        <time>2010-01-01T01:30:54Z</time>
      </trkpt>
      <trkpt lat="46.96323" lon="-1.11467">
        <ele>108</ele>
        <time>2010-01-01T01:31:01Z</time>
      </trkpt>
      <trkpt lat="46.96351" lon="-1.11425">
        <ele>108</ele>
        <time>2010-01-01T01:31:07Z</time>
      </trkpt>
      <trkpt lat="46.96362" lon="-1.11404">
        <ele>108</ele>
        <time>2010-01-01T01:31:11Z</time>
      </trkpt>
      <trkpt lat="46.96373" lon="-1.11372">
        <ele>108</ele>
        <time>2010-01-01T01:31:15Z</time>
      </trkpt>
      <trkpt lat="46.96389" lon="-1.11289">
        <ele>107</ele>
        <time>2010-01-01T01:31:24Z</time>
      </trkpt>
      <trkpt lat="46.96407" lon="-1.11172">
        <ele>105</ele>
        <time>2010-01-01T01:31:38Z</time>
      </trkpt>
      <trkpt lat="46.96409" lon="-1.11125">
        <ele>104</ele>
        <time>2010-01-01T01:31:43Z</time>
      </trkpt>
      <trkpt lat="46.96407" lon="-1.11054">
        <ele>104</ele>
        <time>2010-01-01T01:31:52Z</time>
      </trkpt>
      <trkpt lat="46.96395" lon="-1.10824">
        <ele>100</ele>
        <time>2010-01-01T01:32:18Z</time>
      </trkpt>
      <trkpt lat="46.96394" lon="-1.10789">
        <ele>100</ele>
        <time>2010-01-01T01:32:22Z</time>
      </trkpt>
      <trkpt lat="46.96395" lon="-1.10768">
        <ele>99</ele>
        <time>2010-01-01T01:32:24Z</time>
      </trkpt>
      <trkpt lat="46.96401" lon="-1.10726">
        <ele>97</ele>
        <time>2010-01-01T01:32:29Z</time>
      </trkpt>
      <trkpt lat="46.96408" lon="-1.10701">
        <ele>96</ele>
        <time>2010-01-01T01:32:32Z</time>
      </trkpt>
      <trkpt lat="46.96428" lon="-1.10651">
        <ele>95</ele>
        <time>2010-01-01T01:32:39Z</time>
      </trkpt>
      <trkpt lat="46.96455" lon="-1.10598">
        <ele>94</ele>
        <time>2010-01-01T01:32:46Z</time>
      </trkpt>
      <trkpt lat="46.96511" lon="-1.10476">
        <ele>94</ele>
        <time>2010-01-01T01:33:03Z</time>
      </trkpt>
      <trkpt lat="46.96613" lon="-1.10261">
        <ele>96</ele>
        <time>2010-01-01T01:33:33Z</time>
      </trkpt>
      <trkpt lat="46.96668" lon="-1.10173">
        <ele>99</ele>
        <time>2010-01-01T01:33:46Z</time>
      </trkpt>
      <trkpt lat="46.96749" lon="-1.10016">
        <ele>102</ele>
        <time>2010-01-01T01:34:09Z</time>
      </trkpt>
      <trkpt lat="46.9677" lon="-1.09968">
        <ele>103</ele>
        <time>2010-01-01T01:34:15Z</time>
      </trkpt>
      <trkpt lat="46.96795" lon="-1.09906">
        <ele>103</ele>
        <time>2010-01-01T01:34:23Z</time>
      </trkpt>
      <trkpt lat="46.96812" lon="-1.09868">
        <ele>104</ele>
        <time>2010-01-01T01:34:29Z</time>
      </trkpt>
      <trkpt lat="46.96849" lon="-1.09805">
        <ele>103</ele>
        <time>2010-01-01T01:34:38Z</time>
      </trkpt>
      <trkpt lat="46.96863" lon="-1.09775">
        <ele>102</ele>
        <time>2010-01-01T01:34:42Z</time>
      </trkpt>
      <trkpt lat="46.96874" lon="-1.09757">
        <ele>101</ele>
        <time>2010-01-01T01:34:45Z</time>
      </trkpt>
      <trkpt lat="46.96886" lon="-1.09725">
        <ele>100</ele>
        <time>2010-01-01T01:34:49Z</time>
      </trkpt>
      <trkpt lat="46.9691" lon="-1.09637">
        <ele>99</ele>
        <time>2010-01-01T01:35:00Z</time>
      </trkpt>
      <trkpt lat="46.96915" lon="-1.09615">
        <ele>98</ele>
        <time>2010-01-01T01:35:03Z</time>
      </trkpt>
      <trkpt lat="46.96921" lon="-1.0956">
        <ele>97</ele>
        <time>2010-01-01T01:35:09Z</time>
      </trkpt>
      <trkpt lat="46.96924" lon="-1.09544">
        <ele>97</ele>
        <time>2010-01-01T01:35:11Z</time>
      </trkpt>
      <trkpt lat="46.9693" lon="-1.09535">
        <ele>96</ele>
        <time>2010-01-01T01:35:12Z</time>
      </trkpt>
      <trkpt lat="46.96957" lon="-1.09508">
        <ele>95</ele>
        <time>2010-01-01T01:35:18Z</time>
      </trkpt>
      <trkpt lat="46.96973" lon="-1.09498">
        <ele>94</ele>
        <time>2010-01-01T01:35:21Z</time>
      </trkpt>
      <trkpt lat="46.9698" lon="-1.0949">
        <ele>93</ele>
        <time>2010-01-01T01:35:22Z</time>
      </trkpt>
      <trkpt lat="46.96988" lon="-1.09475">
        <ele>93</ele>
        <time>2010-01-01T01:35:24Z</time>
      </trkpt>
      <trkpt lat="46.9699" lon="-1.09465">
        <ele>93</ele>
        <time>2010-01-01T01:35:25Z</time>
      </trkpt>
      <trkpt lat="46.96991" lon="-1.09442">
        <ele>93</ele>
        <time>2010-01-01T01:35:28Z</time>
      </trkpt>
      <trkpt lat="46.9699" lon="-1.09398">
        <ele>94</ele>
        <time>2010-01-01T01:35:33Z</time>
      </trkpt>
      <trkpt lat="46.96993" lon="-1.09384">
        <ele>94</ele>
        <time>2010-01-01T01:35:35Z</time>
      </trkpt>
      <trkpt lat="46.97036" lon="-1.09279">
        <ele>91</ele>
        <time>2010-01-01T01:35:49Z</time>
      </trkpt>
      <trkpt lat="46.97042" lon="-1.09269">
        <ele>90</ele>
        <time>2010-01-01T01:35:50Z</time>
      </trkpt>
      <trkpt lat="46.971" lon="-1.09219">
        <ele>86</ele>
        <time>2010-01-01T01:36:01Z</time>
      </trkpt>
      <trkpt lat="46.9717" lon="-1.09139">
        <ele>89</ele>
        <time>2010-01-01T01:36:16Z</time>
      </trkpt>
      <trkpt lat="46.97185" lon="-1.09119">
        <ele>90</ele>
        <time>2010-01-01T01:36:20Z</time>
      </trkpt>
      <trkpt lat="46.97219" lon="-1.08988">
        <ele>93</ele>
        <time>2010-01-01T01:36:36Z</time>
      </trkpt>
      <trkpt lat="46.97225" lon="-1.08837">
        <ele>97</ele>
        <time>2010-01-01T01:36:53Z</time>
      </trkpt>
      <trkpt lat="46.97213" lon="-1.08754">
        <ele>98</ele>
        <time>2010-01-01T01:37:02Z</time>
      </trkpt>
      <trkpt lat="46.97198" lon="-1.08714">
        <ele>99</ele>
        <time>2010-01-01T01:37:08Z</time>
      </trkpt>
      <trkpt lat="46.97181" lon="-1.08692">
        <ele>99</ele>
        <time>2010-01-01T01:37:11Z</time>
      </trkpt>
      <trkpt lat="46.97167" lon="-1.08685">
        <ele>100</ele>
        <time>2010-01-01T01:37:14Z</time>
      </trkpt>
      <trkpt lat="46.97075" lon="-1.08691">
        <ele>106</ele>
        <time>2010-01-01T01:37:29Z</time>
      </trkpt>
      <trkpt lat="46.9704" lon="-1.08674">
        <ele>109</ele>
        <time>2010-01-01T01:37:35Z</time>
      </trkpt>
      <trkpt lat="46.96977" lon="-1.08626">
        <ele>111</ele>
        <time>2010-01-01T01:37:47Z</time>
      </trkpt>
      <trkpt lat="46.96959" lon="-1.08607">
        <ele>111</ele>
        <time>2010-01-01T01:37:51Z</time>
      </trkpt>
      <trkpt lat="46.96943" lon="-1.08584">
        <ele>112</ele>
        <time>2010-01-01T01:37:55Z</time>
      </trkpt>
      <trkpt lat="46.96923" lon="-1.08541">
        <ele>112</ele>
        <time>2010-01-01T01:38:01Z</time>
      </trkpt>
      <trkpt lat="46.96906" lon="-1.08493">
        <ele>111</ele>
        <time>2010-01-01T01:38:07Z</time>
      </trkpt>
      <trkpt lat="46.96865" lon="-1.08347">
        <ele>111</ele>
        <time>2010-01-01T01:38:25Z</time>
      </trkpt>
      <trkpt lat="46.9686" lon="-1.08322">
        <ele>111</ele>
        <time>2010-01-01T01:38:28Z</time>
      </trkpt>
      <trkpt lat="46.96857" lon="-1.08293">
        <ele>112</ele>
        <time>2010-01-01T01:38:31Z</time>
      </trkpt>
      <trkpt lat="46.96856" lon="-1.08254">
        <ele>112</ele>
        <time>2010-01-01T01:38:35Z</time>
      </trkpt>
      <trkpt lat="46.96862" lon="-1.08155">
        <ele>113</ele>
        <time>2010-01-01T01:38:47Z</time>
      </trkpt>
      <trkpt lat="46.96866" lon="-1.0811">
        <ele>114</ele>
        <time>2010-01-01T01:38:52Z</time>
      </trkpt>
      <trkpt lat="46.96886" lon="-1.08044">
        <ele>114</ele>
        <time>2010-01-01T01:39:00Z</time>
      </trkpt>
      <trkpt lat="46.96918" lon="-1.07947">
        <ele>115</ele>
        <time>2010-01-01T01:39:12Z</time>
      </trkpt>
      <trkpt lat="46.9694" lon="-1.07856">
        <ele>116</ele>
        <time>2010-01-01T01:39:23Z</time>
      </trkpt>
      <trkpt lat="46.96955" lon="-1.07725">
        <ele>116</ele>
        <time>2010-01-01T01:39:38Z</time>
      </trkpt>
      <trkpt lat="46.96956" lon="-1.07693">
        <ele>116</ele>
        <time>2010-01-01T01:39:42Z</time>
      </trkpt>
      <trkpt lat="46.96956" lon="-1.07694">
        <ele>116</ele>
        <time>2010-01-01T01:39:42Z</time>
      </trkpt>
      <trkpt lat="46.9696" lon="-1.07494">
        <ele>119</ele>
        <time>2010-01-01T01:40:05Z</time>
      </trkpt>
      <trkpt lat="46.96967" lon="-1.07375">
        <ele>121</ele>
        <time>2010-01-01T01:40:19Z</time>
      </trkpt>
      <trkpt lat="46.96965" lon="-1.07306">
        <ele>122</ele>
        <time>2010-01-01T01:40:26Z</time>
      </trkpt>
      <trkpt lat="46.96958" lon="-1.07215">
        <ele>123</ele>
        <time>2010-01-01T01:40:37Z</time>
      </trkpt>
      <trkpt lat="46.9694" lon="-1.07048">
        <ele>125</ele>
        <time>2010-01-01T01:40:56Z</time>
      </trkpt>
      <trkpt lat="46.9694" lon="-1.06971">
        <ele>127</ele>
        <time>2010-01-01T01:41:05Z</time>
      </trkpt>
      <trkpt lat="46.97007" lon="-1.06751">
        <ele>124</ele>
        <time>2010-01-01T01:41:32Z</time>
      </trkpt>
      <trkpt lat="46.9702" lon="-1.06689">
        <ele>124</ele>
        <time>2010-01-01T01:41:40Z</time>
      </trkpt>
      <trkpt lat="46.97036" lon="-1.06546">
        <ele>122</ele>
        <time>2010-01-01T01:41:56Z</time>
      </trkpt>
      <trkpt lat="46.97075" lon="-1.06438">
        <ele>119</ele>
        <time>2010-01-01T01:42:10Z</time>
      </trkpt>
      <trkpt lat="46.9713" lon="-1.0631">
        <ele>118</ele>
        <time>2010-01-01T01:42:27Z</time>
      </trkpt>
      <trkpt lat="46.97166" lon="-1.06209">
        <ele>118</ele>
        <time>2010-01-01T01:42:40Z</time>
      </trkpt>
      <trkpt lat="46.97173" lon="-1.06165">
        <ele>117</ele>
        <time>2010-01-01T01:42:45Z</time>
      </trkpt>
      <trkpt lat="46.97174" lon="-1.0598">
        <ele>113</ele>
        <time>2010-01-01T01:43:06Z</time>
      </trkpt>
      <trkpt lat="46.97178" lon="-1.05949">
        <ele>113</ele>
        <time>2010-01-01T01:43:10Z</time>
      </trkpt>
      <trkpt lat="46.97185" lon="-1.05922">
        <ele>113</ele>
        <time>2010-01-01T01:43:13Z</time>
      </trkpt>
      <trkpt lat="46.97243" lon="-1.05838">
        <ele>112</ele>
        <time>2010-01-01T01:43:27Z</time>
      </trkpt>
      <trkpt lat="46.97352" lon="-1.05617">
        <ele>117</ele>
        <time>2010-01-01T01:43:58Z</time>
      </trkpt>
      <trkpt lat="46.97369" lon="-1.05562">
        <ele>118</ele>
        <time>2010-01-01T01:44:05Z</time>
      </trkpt>
      <trkpt lat="46.97379" lon="-1.05513">
        <ele>118</ele>
        <time>2010-01-01T01:44:11Z</time>
      </trkpt>
      <trkpt lat="46.9738" lon="-1.05431">
        <ele>119</ele>
        <time>2010-01-01T01:44:20Z</time>
      </trkpt>
      <trkpt lat="46.97379" lon="-1.05262">
        <ele>122</ele>
        <time>2010-01-01T01:44:39Z</time>
      </trkpt>
      <trkpt lat="46.9738" lon="-1.05195">
        <ele>122</ele>
        <time>2010-01-01T01:44:47Z</time>
      </trkpt>
      <trkpt lat="46.97384" lon="-1.05104">
        <ele>123</ele>
        <time>2010-01-01T01:44:57Z</time>
      </trkpt>
      <trkpt lat="46.97397" lon="-1.05084">
        <ele>123</ele>
        <time>2010-01-01T01:45:00Z</time>
      </trkpt>
      <trkpt lat="46.97412" lon="-1.05055">
        <ele>123</ele>
        <time>2010-01-01T01:45:05Z</time>
      </trkpt>
      <trkpt lat="46.97423" lon="-1.05024">
        <ele>123</ele>
        <time>2010-01-01T01:45:09Z</time>
      </trkpt>
      <trkpt lat="46.97443" lon="-1.04927">
        <ele>122</ele>
        <time>2010-01-01T01:45:20Z</time>
      </trkpt>
      <trkpt lat="46.97446" lon="-1.04904">
        <ele>122</ele>
        <time>2010-01-01T01:45:23Z</time>
      </trkpt>
      <trkpt lat="46.97458" lon="-1.0472">
        <ele>123</ele>
        <time>2010-01-01T01:45:44Z</time>
      </trkpt>
      <trkpt lat="46.97461" lon="-1.04605">
        <ele>124</ele>
        <time>2010-01-01T01:45:57Z</time>
      </trkpt>
      <trkpt lat="46.97459" lon="-1.04565">
        <ele>124</ele>
        <time>2010-01-01T01:46:01Z</time>
      </trkpt>
      <trkpt lat="46.97447" lon="-1.04476">
        <ele>125</ele>
        <time>2010-01-01T01:46:12Z</time>
      </trkpt>
      <trkpt lat="46.97349" lon="-1.0408">
        <ele>126</ele>
        <time>2010-01-01T01:47:00Z</time>
      </trkpt>
      <trkpt lat="46.9734" lon="-1.0404">
        <ele>126</ele>
        <time>2010-01-01T01:47:04Z</time>
      </trkpt>
      <trkpt lat="46.97335" lon="-1.03997">
        <ele>127</ele>
        <time>2010-01-01T01:47:09Z</time>
      </trkpt>
      <trkpt lat="46.97364" lon="-1.03825">
        <ele>129</ele>
        <time>2010-01-01T01:47:30Z</time>
      </trkpt>
      <trkpt lat="46.97373" lon="-1.03757">
        <ele>130</ele>
        <time>2010-01-01T01:47:37Z</time>
      </trkpt>
      <trkpt lat="46.974" lon="-1.03282">
        <ele>135</ele>
        <time>2010-01-01T01:48:32Z</time>
      </trkpt>
      <trkpt lat="46.974" lon="-1.03228">
        <ele>135</ele>
        <time>2010-01-01T01:48:38Z</time>
      </trkpt>
      <trkpt lat="46.97384" lon="-1.03129">
        <ele>136</ele>
        <time>2010-01-01T01:48:49Z</time>
      </trkpt>
      <trkpt lat="46.97368" lon="-1.02921">
        <ele>138</ele>
        <time>2010-01-01T01:49:13Z</time>
      </trkpt>
      <trkpt lat="46.97362" lon="-1.02785">
        <ele>139</ele>
        <time>2010-01-01T01:49:29Z</time>
      </trkpt>
      <trkpt lat="46.97386" lon="-1.02466">
        <ele>135</ele>
        <time>2010-01-01T01:50:05Z</time>
      </trkpt>
      <trkpt lat="46.97338" lon="-1.02205">
        <ele>134</ele>
        <time>2010-01-01T01:50:36Z</time>
      </trkpt>
      <trkpt lat="46.97324" lon="-1.02192">
        <ele>134</ele>
        <time>2010-01-01T01:50:39Z</time>
      </trkpt>
      <trkpt lat="46.97298" lon="-1.02164">
        <ele>133</ele>
        <time>2010-01-01T01:50:44Z</time>
      </trkpt>
      <trkpt lat="46.97289" lon="-1.02149">
        <ele>133</ele>
        <time>2010-01-01T01:50:46Z</time>
      </trkpt>
      <trkpt lat="46.97281" lon="-1.02129">
        <ele>133</ele>
        <time>2010-01-01T01:50:49Z</time>
      </trkpt>
      <trkpt lat="46.97107" lon="-1.01514">
        <ele>136</ele>
        <time>2010-01-01T01:52:05Z</time>
      </trkpt>
      <trkpt lat="46.97099" lon="-1.0148">
        <ele>135</ele>
        <time>2010-01-01T01:52:09Z</time>
      </trkpt>
      <trkpt lat="46.97078" lon="-1.01328">
        <ele>134</ele>
        <time>2010-01-01T01:52:27Z</time>
      </trkpt>
      <trkpt lat="46.97043" lon="-1.0107">
        <ele>130</ele>
        <time>2010-01-01T01:52:57Z</time>
      </trkpt>
      <trkpt lat="46.97038" lon="-1.01038">
        <ele>130</ele>
        <time>2010-01-01T01:53:00Z</time>
      </trkpt>
      <trkpt lat="46.97028" lon="-1.01017">
        <ele>130</ele>
        <time>2010-01-01T01:53:03Z</time>
      </trkpt>
      <trkpt lat="46.96991" lon="-1.00977">
        <ele>132</ele>
        <time>2010-01-01T01:53:11Z</time>
      </trkpt>
      <trkpt lat="46.96915" lon="-1.00903">
        <ele>137</ele>
        <time>2010-01-01T01:53:26Z</time>
      </trkpt>
      <trkpt lat="46.96853" lon="-1.00846">
        <ele>139</ele>
        <time>2010-01-01T01:53:38Z</time>
      </trkpt>
      <trkpt lat="46.96835" lon="-1.00826">
        <ele>140</ele>
        <time>2010-01-01T01:53:42Z</time>
      </trkpt>
      <trkpt lat="46.96825" lon="-1.00811">
        <ele>141</ele>
        <time>2010-01-01T01:53:44Z</time>
      </trkpt>
      <trkpt lat="46.96824" lon="-1.00744">
        <ele>143</ele>
        <time>2010-01-01T01:53:52Z</time>
      </trkpt>
      <trkpt lat="46.96831" lon="-1.00628">
        <ele>146</ele>
        <time>2010-01-01T01:54:05Z</time>
      </trkpt>
      <trkpt lat="46.9683" lon="-1.00611">
        <ele>146</ele>
        <time>2010-01-01T01:54:07Z</time>
      </trkpt>
      <trkpt lat="46.96827" lon="-1.00589">
        <ele>147</ele>
        <time>2010-01-01T01:54:10Z</time>
      </trkpt>
      <trkpt lat="46.96819" lon="-1.00575">
        <ele>148</ele>
        <time>2010-01-01T01:54:12Z</time>
      </trkpt>
      <trkpt lat="46.96808" lon="-1.00562">
        <ele>149</ele>
        <time>2010-01-01T01:54:14Z</time>
      </trkpt>
      <trkpt lat="46.9679" lon="-1.00553">
        <ele>150</ele>
        <time>2010-01-01T01:54:17Z</time>
      </trkpt>
      <trkpt lat="46.9678" lon="-1.00554">
        <ele>150</ele>
        <time>2010-01-01T01:54:19Z</time>
      </trkpt>
      <trkpt lat="46.96758" lon="-1.00562">
        <ele>151</ele>
        <time>2010-01-01T01:54:23Z</time>
      </trkpt>
      <trkpt lat="46.96747" lon="-1.00562">
        <ele>151</ele>
        <time>2010-01-01T01:54:25Z</time>
      </trkpt>
      <trkpt lat="46.9673" lon="-1.00548">
        <ele>153</ele>
        <time>2010-01-01T01:54:28Z</time>
      </trkpt>
      <trkpt lat="46.96715" lon="-1.00517">
        <ele>155</ele>
        <time>2010-01-01T01:54:32Z</time>
      </trkpt>
      <trkpt lat="46.96708" lon="-1.00508">
        <ele>156</ele>
        <time>2010-01-01T01:54:34Z</time>
      </trkpt>
      <trkpt lat="46.96689" lon="-1.00498">
        <ele>157</ele>
        <time>2010-01-01T01:54:37Z</time>
      </trkpt>
      <trkpt lat="46.9668" lon="-1.00498">
        <ele>157</ele>
        <time>2010-01-01T01:54:39Z</time>
      </trkpt>
      <trkpt lat="46.96667" lon="-1.00507">
        <ele>158</ele>
        <time>2010-01-01T01:54:41Z</time>
      </trkpt>
      <trkpt lat="46.96657" lon="-1.00509">
        <ele>158</ele>
        <time>2010-01-01T01:54:43Z</time>
      </trkpt>
      <trkpt lat="46.96636" lon="-1.00508">
        <ele>159</ele>
        <time>2010-01-01T01:54:46Z</time>
      </trkpt>
      <trkpt lat="46.9662" lon="-1.00498">
        <ele>159</ele>
        <time>2010-01-01T01:54:49Z</time>
      </trkpt>
      <trkpt lat="46.96614" lon="-1.00486">
        <ele>160</ele>
        <time>2010-01-01T01:54:51Z</time>
      </trkpt>
      <trkpt lat="46.9661" lon="-1.00473">
        <ele>160</ele>
        <time>2010-01-01T01:54:53Z</time>
      </trkpt>
      <trkpt lat="46.96609" lon="-1.00458">
        <ele>160</ele>
        <time>2010-01-01T01:54:54Z</time>
      </trkpt>
      <trkpt lat="46.96611" lon="-1.00439">
        <ele>161</ele>
        <time>2010-01-01T01:54:56Z</time>
      </trkpt>
      <trkpt lat="46.96636" lon="-1.00343">
        <ele>161</ele>
        <time>2010-01-01T01:55:08Z</time>
      </trkpt>
      <trkpt lat="46.96653" lon="-1.00282">
        <ele>161</ele>
        <time>2010-01-01T01:55:16Z</time>
      </trkpt>
      <trkpt lat="46.96655" lon="-1.00261">
        <ele>161</ele>
        <time>2010-01-01T01:55:18Z</time>
      </trkpt>
      <trkpt lat="46.96655" lon="-1.00251">
        <ele>161</ele>
        <time>2010-01-01T01:55:19Z</time>
      </trkpt>
      <trkpt lat="46.9665" lon="-1.00236">
        <ele>161</ele>
        <time>2010-01-01T01:55:21Z</time>
      </trkpt>
      <trkpt lat="46.96642" lon="-1.00221">
        <ele>161</ele>
        <time>2010-01-01T01:55:23Z</time>
      </trkpt>
      <trkpt lat="46.96625" lon="-1.00197">
        <ele>161</ele>
        <time>2010-01-01T01:55:27Z</time>
      </trkpt>
      <trkpt lat="46.96544" lon="-1.00104">
        <ele>161</ele>
        <time>2010-01-01T01:55:44Z</time>
      </trkpt>
      <trkpt lat="46.96506" lon="-1.00057">
        <ele>162</ele>
        <time>2010-01-01T01:55:53Z</time>
      </trkpt>
      <trkpt lat="46.96459" lon="-0.99989">
        <ele>161</ele>
        <time>2010-01-01T01:56:04Z</time>
      </trkpt>
      <trkpt lat="46.9633" lon="-0.99688">
        <ele>158</ele>
        <time>2010-01-01T01:56:44Z</time>
      </trkpt>
      <trkpt lat="46.9632" lon="-0.9968">
        <ele>158</ele>
        <time>2010-01-01T01:56:46Z</time>
      </trkpt>
      <trkpt lat="46.96306" lon="-0.99672">
        <ele>158</ele>
        <time>2010-01-01T01:56:49Z</time>
      </trkpt>
      <trkpt lat="46.96233" lon="-0.9967">
        <ele>160</ele>
        <time>2010-01-01T01:57:01Z</time>
      </trkpt>
      <trkpt lat="46.96219" lon="-0.99664">
        <ele>160</ele>
        <time>2010-01-01T01:57:03Z</time>
      </trkpt>
      <trkpt lat="46.96199" lon="-0.9965">
        <ele>161</ele>
        <time>2010-01-01T01:57:07Z</time>
      </trkpt>
      <trkpt lat="46.96182" lon="-0.99615">
        <ele>160</ele>
        <time>2010-01-01T01:57:12Z</time>
      </trkpt>
      <trkpt lat="46.96166" lon="-0.99577">
        <ele>160</ele>
        <time>2010-01-01T01:57:17Z</time>
      </trkpt>
      <trkpt lat="46.96146" lon="-0.99558">
        <ele>159</ele>
        <time>2010-01-01T01:57:21Z</time>
      </trkpt>
      <trkpt lat="46.96141" lon="-0.99536">
        <ele>159</ele>
        <time>2010-01-01T01:57:23Z</time>
      </trkpt>
      <trkpt lat="46.96143" lon="-0.9951">
        <ele>158</ele>
        <time>2010-01-01T01:57:26Z</time>
      </trkpt>
      <trkpt lat="46.96133" lon="-0.99507">
        <ele>158</ele>
        <time>2010-01-01T01:57:28Z</time>
      </trkpt>
      <trkpt lat="46.96125" lon="-0.99498">
        <ele>157</ele>
        <time>2010-01-01T01:57:30Z</time>
      </trkpt>
      <trkpt lat="46.96114" lon="-0.99455">
        <ele>156</ele>
        <time>2010-01-01T01:57:35Z</time>
      </trkpt>
      <trkpt lat="46.96072" lon="-0.99385">
        <ele>155</ele>
        <time>2010-01-01T01:57:46Z</time>
      </trkpt>
      <trkpt lat="46.96043" lon="-0.99345">
        <ele>158</ele>
        <time>2010-01-01T01:57:52Z</time>
      </trkpt>
      <trkpt lat="46.96031" lon="-0.99323">
        <ele>159</ele>
        <time>2010-01-01T01:57:56Z</time>
      </trkpt>
      <trkpt lat="46.9601" lon="-0.99261">
        <ele>162</ele>
        <time>2010-01-01T01:58:03Z</time>
      </trkpt>
      <trkpt lat="46.95996" lon="-0.99239">
        <ele>163</ele>
        <time>2010-01-01T01:58:07Z</time>
      </trkpt>
      <trkpt lat="46.95936" lon="-0.99095">
        <ele>164</ele>
        <time>2010-01-01T01:58:26Z</time>
      </trkpt>
      <trkpt lat="46.95936" lon="-0.99088">
        <ele>164</ele>
        <time>2010-01-01T01:58:27Z</time>
      </trkpt>
      <trkpt lat="46.95931" lon="-0.99083">
        <ele>164</ele>
        <time>2010-01-01T01:58:28Z</time>
      </trkpt>
      <trkpt lat="46.95914" lon="-0.98986">
        <ele>162</ele>
        <time>2010-01-01T01:58:39Z</time>
      </trkpt>
      <trkpt lat="46.95901" lon="-0.98935">
        <ele>161</ele>
        <time>2010-01-01T01:58:45Z</time>
      </trkpt>
      <trkpt lat="46.95888" lon="-0.98862">
        <ele>159</ele>
        <time>2010-01-01T01:58:54Z</time>
      </trkpt>
      <trkpt lat="46.95878" lon="-0.98824">
        <ele>159</ele>
        <time>2010-01-01T01:58:59Z</time>
      </trkpt>
      <trkpt lat="46.9586" lon="-0.9879">
        <ele>159</ele>
        <time>2010-01-01T01:59:04Z</time>
      </trkpt>
      <trkpt lat="46.95801" lon="-0.98727">
        <ele>158</ele>
        <time>2010-01-01T01:59:16Z</time>
      </trkpt>
      <trkpt lat="46.9578" lon="-0.9871">
        <ele>158</ele>
        <time>2010-01-01T01:59:20Z</time>
      </trkpt>
      <trkpt lat="46.95743" lon="-0.98669">
        <ele>159</ele>
        <time>2010-01-01T01:59:27Z</time>
      </trkpt>
      <trkpt lat="46.95713" lon="-0.98622">
        <ele>160</ele>
        <time>2010-01-01T01:59:35Z</time>
      </trkpt>
      <trkpt lat="46.95691" lon="-0.98573">
        <ele>161</ele>
        <time>2010-01-01T01:59:41Z</time>
      </trkpt>
      <trkpt lat="46.95604" lon="-0.9842">
        <ele>165</ele>
        <time>2010-01-01T02:00:04Z</time>
      </trkpt>
      <trkpt lat="46.95566" lon="-0.9836">
        <ele>167</ele>
        <time>2010-01-01T02:00:13Z</time>
      </trkpt>
      <trkpt lat="46.95536" lon="-0.98309">
        <ele>168</ele>
        <time>2010-01-01T02:00:21Z</time>
      </trkpt>
      <trkpt lat="46.95494" lon="-0.9823">
        <ele>170</ele>
        <time>2010-01-01T02:00:33Z</time>
      </trkpt>
      <trkpt lat="46.95462" lon="-0.98188">
        <ele>173</ele>
        <time>2010-01-01T02:00:40Z</time>
      </trkpt>
      <trkpt lat="46.95443" lon="-0.98174">
        <ele>175</ele>
        <time>2010-01-01T02:00:43Z</time>
      </trkpt>
      <trkpt lat="46.954" lon="-0.98153">
        <ele>176</ele>
        <time>2010-01-01T02:00:51Z</time>
      </trkpt>
      <trkpt lat="46.95364" lon="-0.98151">
        <ele>176</ele>
        <time>2010-01-01T02:00:57Z</time>
      </trkpt>
      <trkpt lat="46.9532" lon="-0.98168">
        <ele>176</ele>
        <time>2010-01-01T02:01:04Z</time>
      </trkpt>
      <trkpt lat="46.95098" lon="-0.98275">
        <ele>177</ele>
        <time>2010-01-01T02:01:43Z</time>
      </trkpt>
      <trkpt lat="46.95028" lon="-0.98305">
        <ele>178</ele>
        <time>2010-01-01T02:01:56Z</time>
      </trkpt>
      <trkpt lat="46.94981" lon="-0.98322">
        <ele>179</ele>
        <time>2010-01-01T02:02:04Z</time>
      </trkpt>
      <trkpt lat="46.94905" lon="-0.98344">
        <ele>179</ele>
        <time>2010-01-01T02:02:17Z</time>
      </trkpt>
      <trkpt lat="46.94819" lon="-0.98383">
        <ele>180</ele>
        <time>2010-01-01T02:02:32Z</time>
      </trkpt>
      <trkpt lat="46.94749" lon="-0.98419">
        <ele>183</ele>
        <time>2010-01-01T02:02:44Z</time>
      </trkpt>
      <trkpt lat="46.94745" lon="-0.98405">
        <ele>183</ele>
        <time>2010-01-01T02:02:46Z</time>
      </trkpt>
      <trkpt lat="46.94739" lon="-0.98396">
        <ele>183</ele>
        <time>2010-01-01T02:02:47Z</time>
      </trkpt>
      <trkpt lat="46.94733" lon="-0.9835">
        <ele>182</ele>
        <time>2010-01-01T02:02:52Z</time>
      </trkpt>
      <trkpt lat="46.9473" lon="-0.9831">
        <ele>182</ele>
        <time>2010-01-01T02:02:57Z</time>
      </trkpt>
      <trkpt lat="46.94722" lon="-0.98266">
        <ele>183</ele>
        <time>2010-01-01T02:03:02Z</time>
      </trkpt>
      <trkpt lat="46.94683" lon="-0.98086">
        <ele>185</ele>
        <time>2010-01-01T02:03:24Z</time>
      </trkpt>
      <trkpt lat="46.94664" lon="-0.98045">
        <ele>185</ele>
        <time>2010-01-01T02:03:29Z</time>
      </trkpt>
      <trkpt lat="46.94656" lon="-0.98042">
        <ele>186</ele>
        <time>2010-01-01T02:03:31Z</time>
      </trkpt>
      <trkpt lat="46.94649" lon="-0.98035">
        <ele>186</ele>
        <time>2010-01-01T02:03:32Z</time>
      </trkpt>
      <trkpt lat="46.94643" lon="-0.9802">
        <ele>186</ele>
        <time>2010-01-01T02:03:34Z</time>
      </trkpt>
      <trkpt lat="46.94642" lon="-0.98011">
        <ele>186</ele>
        <time>2010-01-01T02:03:35Z</time>
      </trkpt>
      <trkpt lat="46.94644" lon="-0.98">
        <ele>186</ele>
        <time>2010-01-01T02:03:36Z</time>
      </trkpt>
      <trkpt lat="46.94649" lon="-0.97987">
        <ele>186</ele>
        <time>2010-01-01T02:03:38Z</time>
      </trkpt>
      <trkpt lat="46.94611" lon="-0.97954">
        <ele>187</ele>
        <time>2010-01-01T02:03:45Z</time>
      </trkpt>
      <trkpt lat="46.94593" lon="-0.97945">
        <ele>187</ele>
        <time>2010-01-01T02:03:49Z</time>
      </trkpt>
      <trkpt lat="46.94579" lon="-0.97942">
        <ele>188</ele>
        <time>2010-01-01T02:03:51Z</time>
      </trkpt>
      <trkpt lat="46.94558" lon="-0.97952">
        <ele>188</ele>
        <time>2010-01-01T02:03:55Z</time>
      </trkpt>
      <trkpt lat="46.94454" lon="-0.98024">
        <ele>191</ele>
        <time>2010-01-01T02:04:14Z</time>
      </trkpt>
      <trkpt lat="46.9441" lon="-0.98062">
        <ele>192</ele>
        <time>2010-01-01T02:04:22Z</time>
      </trkpt>
      <trkpt lat="46.94369" lon="-0.98079">
        <ele>192</ele>
        <time>2010-01-01T02:04:30Z</time>
      </trkpt>
      <trkpt lat="46.9434" lon="-0.98077">
        <ele>192</ele>
        <time>2010-01-01T02:04:34Z</time>
      </trkpt>
      <trkpt lat="46.94308" lon="-0.98058">
        <ele>191</ele>
        <time>2010-01-01T02:04:40Z</time>
      </trkpt>
      <trkpt lat="46.94249" lon="-0.97959">
        <ele>190</ele>
        <time>2010-01-01T02:04:55Z</time>
      </trkpt>
      <trkpt lat="46.94242" lon="-0.9794">
        <ele>190</ele>
        <time>2010-01-01T02:04:58Z</time>
      </trkpt>
      <trkpt lat="46.94231" lon="-0.97911">
        <ele>191</ele>
        <time>2010-01-01T02:05:01Z</time>
      </trkpt>
      <trkpt lat="46.94215" lon="-0.97878">
        <ele>191</ele>
        <time>2010-01-01T02:05:06Z</time>
      </trkpt>
      <trkpt lat="46.94191" lon="-0.97805">
        <ele>192</ele>
        <time>2010-01-01T02:05:15Z</time>
      </trkpt>
      <trkpt lat="46.94153" lon="-0.97736">
        <ele>194</ele>
        <time>2010-01-01T02:05:25Z</time>
      </trkpt>
      <trkpt lat="46.94132" lon="-0.9771">
        <ele>194</ele>
        <time>2010-01-01T02:05:30Z</time>
      </trkpt>
      <trkpt lat="46.94075" lon="-0.97683">
        <ele>196</ele>
        <time>2010-01-01T02:05:40Z</time>
      </trkpt>
      <trkpt lat="46.94053" lon="-0.97666">
        <ele>196</ele>
        <time>2010-01-01T02:05:44Z</time>
      </trkpt>
      <trkpt lat="46.94041" lon="-0.97639">
        <ele>196</ele>
        <time>2010-01-01T02:05:48Z</time>
      </trkpt>
      <trkpt lat="46.94029" lon="-0.97547">
        <ele>197</ele>
        <time>2010-01-01T02:05:58Z</time>
      </trkpt>
      <trkpt lat="46.9399" lon="-0.9717">
        <ele>199</ele>
        <time>2010-01-01T02:06:42Z</time>
      </trkpt>
      <trkpt lat="46.93978" lon="-0.97116">
        <ele>199</ele>
        <time>2010-01-01T02:06:48Z</time>
      </trkpt>
      <trkpt lat="46.93968" lon="-0.97088">
        <ele>199</ele>
        <time>2010-01-01T02:06:52Z</time>
      </trkpt>
      <trkpt lat="46.93933" lon="-0.97028">
        <ele>200</ele>
        <time>2010-01-01T02:07:01Z</time>
      </trkpt>
      <trkpt lat="46.93899" lon="-0.96955">
        <ele>199</ele>
        <time>2010-01-01T02:07:11Z</time>
      </trkpt>
      <trkpt lat="46.93873" lon="-0.9688">
        <ele>198</ele>
        <time>2010-01-01T02:07:20Z</time>
      </trkpt>
      <trkpt lat="46.93821" lon="-0.96764">
        <ele>198</ele>
        <time>2010-01-01T02:07:36Z</time>
      </trkpt>
      <trkpt lat="46.93795" lon="-0.96717">
        <ele>197</ele>
        <time>2010-01-01T02:07:43Z</time>
      </trkpt>
      <trkpt lat="46.93769" lon="-0.96637">
        <ele>195</ele>
        <time>2010-01-01T02:07:53Z</time>
      </trkpt>
      <trkpt lat="46.93735" lon="-0.96502">
        <ele>196</ele>
        <time>2010-01-01T02:08:10Z</time>
      </trkpt>
      <trkpt lat="46.93717" lon="-0.96444">
        <ele>197</ele>
        <time>2010-01-01T02:08:17Z</time>
      </trkpt>
      <trkpt lat="46.93698" lon="-0.96404">
        <ele>197</ele>
        <time>2010-01-01T02:08:22Z</time>
      </trkpt>
      <trkpt lat="46.93666" lon="-0.96318">
        <ele>199</ele>
        <time>2010-01-01T02:08:34Z</time>
      </trkpt>
      <trkpt lat="46.93648" lon="-0.96238">
        <ele>199</ele>
        <time>2010-01-01T02:08:43Z</time>
      </trkpt>
      <trkpt lat="46.93632" lon="-0.9615">
        <ele>198</ele>
        <time>2010-01-01T02:08:54Z</time>
      </trkpt>
      <trkpt lat="46.93594" lon="-0.9606">
        <ele>198</ele>
        <time>2010-01-01T02:09:06Z</time>
      </trkpt>
      <trkpt lat="46.93571" lon="-0.95961">
        <ele>199</ele>
        <time>2010-01-01T02:09:17Z</time>
      </trkpt>
      <trkpt lat="46.93536" lon="-0.95854">
        <ele>200</ele>
        <time>2010-01-01T02:09:31Z</time>
      </trkpt>
      <trkpt lat="46.93518" lon="-0.95788">
        <ele>200</ele>
        <time>2010-01-01T02:09:39Z</time>
      </trkpt>
      <trkpt lat="46.93502" lon="-0.95795">
        <ele>201</ele>
        <time>2010-01-01T02:09:42Z</time>
      </trkpt>
      <trkpt lat="46.93455" lon="-0.95805">
        <ele>201</ele>
        <time>2010-01-01T02:09:50Z</time>
      </trkpt>
      <trkpt lat="46.93411" lon="-0.95805">
        <ele>201</ele>
        <time>2010-01-01T02:09:57Z</time>
      </trkpt>
      <trkpt lat="46.93338" lon="-0.95788">
        <ele>201</ele>
        <time>2010-01-01T02:10:09Z</time>
      </trkpt>
      <trkpt lat="46.93207" lon="-0.95807">
        <ele>207</ele>
        <time>2010-01-01T02:10:31Z</time>
      </trkpt>
      <trkpt lat="46.93039" lon="-0.95783">
        <ele>207</ele>
        <time>2010-01-01T02:11:00Z</time>
      </trkpt>
      <trkpt lat="46.92953" lon="-0.95773">
        <ele>206</ele>
        <time>2010-01-01T02:11:14Z</time>
      </trkpt>
      <trkpt lat="46.9291" lon="-0.95773">
        <ele>205</ele>
        <time>2010-01-01T02:11:21Z</time>
      </trkpt>
      <trkpt lat="46.92867" lon="-0.95761">
        <ele>205</ele>
        <time>2010-01-01T02:11:28Z</time>
      </trkpt>
      <trkpt lat="46.92826" lon="-0.95739">
        <ele>203</ele>
        <time>2010-01-01T02:11:36Z</time>
      </trkpt>
      <trkpt lat="46.92796" lon="-0.95731">
        <ele>203</ele>
        <time>2010-01-01T02:11:41Z</time>
      </trkpt>
      <trkpt lat="46.92686" lon="-0.95739">
        <ele>205</ele>
        <time>2010-01-01T02:11:59Z</time>
      </trkpt>
      <trkpt lat="46.92647" lon="-0.9575">
        <ele>207</ele>
        <time>2010-01-01T02:12:06Z</time>
      </trkpt>
      <trkpt lat="46.92605" lon="-0.95772">
        <ele>210</ele>
        <time>2010-01-01T02:12:13Z</time>
      </trkpt>
      <trkpt lat="46.92478" lon="-0.95868">
        <ele>212</ele>
        <time>2010-01-01T02:12:37Z</time>
      </trkpt>
      <trkpt lat="46.92441" lon="-0.95882">
        <ele>209</ele>
        <time>2010-01-01T02:12:43Z</time>
      </trkpt>
      <trkpt lat="46.92431" lon="-0.95879">
        <ele>208</ele>
        <time>2010-01-01T02:12:45Z</time>
      </trkpt>
      <trkpt lat="46.92389" lon="-0.9587">
        <ele>204</ele>
        <time>2010-01-01T02:12:52Z</time>
      </trkpt>
      <trkpt lat="46.92369" lon="-0.95872">
        <ele>202</ele>
        <time>2010-01-01T02:12:56Z</time>
      </trkpt>
      <trkpt lat="46.92365" lon="-0.95907">
        <ele>201</ele>
        <time>2010-01-01T02:13:00Z</time>
      </trkpt>
      <trkpt lat="46.92352" lon="-0.96067">
        <ele>198</ele>
        <time>2010-01-01T02:13:18Z</time>
      </trkpt>
      <trkpt lat="46.92345" lon="-0.9611">
        <ele>198</ele>
        <time>2010-01-01T02:13:23Z</time>
      </trkpt>
      <trkpt lat="46.92334" lon="-0.96147">
        <ele>198</ele>
        <time>2010-01-01T02:13:28Z</time>
      </trkpt>
      <trkpt lat="46.9229" lon="-0.96262">
        <ele>199</ele>
        <time>2010-01-01T02:13:43Z</time>
      </trkpt>
      <trkpt lat="46.92271" lon="-0.963">
        <ele>200</ele>
        <time>2010-01-01T02:13:48Z</time>
      </trkpt>
      <trkpt lat="46.92264" lon="-0.96319">
        <ele>201</ele>
        <time>2010-01-01T02:13:50Z</time>
      </trkpt>
      <trkpt lat="46.92202" lon="-0.96424">
        <ele>204</ele>
        <time>2010-01-01T02:14:06Z</time>
      </trkpt>
      <trkpt lat="46.92191" lon="-0.96462">
        <ele>205</ele>
        <time>2010-01-01T02:14:11Z</time>
      </trkpt>
      <trkpt lat="46.92183" lon="-0.96493">
        <ele>206</ele>
        <time>2010-01-01T02:14:15Z</time>
      </trkpt>
      <trkpt lat="46.92176" lon="-0.96541">
        <ele>206</ele>
        <time>2010-01-01T02:14:20Z</time>
      </trkpt>
      <trkpt lat="46.92179" lon="-0.9657">
        <ele>206</ele>
        <time>2010-01-01T02:14:24Z</time>
      </trkpt>
      <trkpt lat="46.9216" lon="-0.96594">
        <ele>206</ele>
        <time>2010-01-01T02:14:28Z</time>
      </trkpt>
      <trkpt lat="46.92141" lon="-0.96623">
        <ele>206</ele>
        <time>2010-01-01T02:14:32Z</time>
      </trkpt>
      <trkpt lat="46.92105" lon="-0.96692">
        <ele>207</ele>
        <time>2010-01-01T02:14:42Z</time>
      </trkpt>
      <trkpt lat="46.92077" lon="-0.96736">
        <ele>208</ele>
        <time>2010-01-01T02:14:49Z</time>
      </trkpt>
      <trkpt lat="46.91956" lon="-0.96875">
        <ele>209</ele>
        <time>2010-01-01T02:15:15Z</time>
      </trkpt>
      <trkpt lat="46.91898" lon="-0.96836">
        <ele>208</ele>
        <time>2010-01-01T02:15:25Z</time>
      </trkpt>
      <trkpt lat="46.91875" lon="-0.96835">
        <ele>208</ele>
        <time>2010-01-01T02:15:29Z</time>
      </trkpt>
      <trkpt lat="46.91791" lon="-0.96837">
        <ele>212</ele>
        <time>2010-01-01T02:15:43Z</time>
      </trkpt>
      <trkpt lat="46.91727" lon="-0.96829">
        <ele>216</ele>
        <time>2010-01-01T02:15:54Z</time>
      </trkpt>
      <trkpt lat="46.91627" lon="-0.96827">
        <ele>223</ele>
        <time>2010-01-01T02:16:11Z</time>
      </trkpt>
      <trkpt lat="46.91439" lon="-0.96805">
        <ele>215</ele>
        <time>2010-01-01T02:16:42Z</time>
      </trkpt>
      <trkpt lat="46.91418" lon="-0.96805">
        <ele>214</ele>
        <time>2010-01-01T02:16:46Z</time>
      </trkpt>
      <trkpt lat="46.91407" lon="-0.96809">
        <ele>214</ele>
        <time>2010-01-01T02:16:48Z</time>
      </trkpt>
      <trkpt lat="46.9139" lon="-0.96818">
        <ele>214</ele>
        <time>2010-01-01T02:16:51Z</time>
      </trkpt>
      <trkpt lat="46.91257" lon="-0.96919">
        <ele>214</ele>
        <time>2010-01-01T02:17:16Z</time>
      </trkpt>
      <trkpt lat="46.91247" lon="-0.96919">
        <ele>214</ele>
        <time>2010-01-01T02:17:17Z</time>
      </trkpt>
      <trkpt lat="46.91219" lon="-0.96909">
        <ele>214</ele>
        <time>2010-01-01T02:17:22Z</time>
      </trkpt>
      <trkpt lat="46.9111" lon="-0.96851">
        <ele>214</ele>
        <time>2010-01-01T02:17:41Z</time>
      </trkpt>
      <trkpt lat="46.91075" lon="-0.96829">
        <ele>214</ele>
        <time>2010-01-01T02:17:48Z</time>
      </trkpt>
      <trkpt lat="46.91018" lon="-0.96784">
        <ele>212</ele>
        <time>2010-01-01T02:17:59Z</time>
      </trkpt>
      <trkpt lat="46.90958" lon="-0.96732">
        <ele>210</ele>
        <time>2010-01-01T02:18:10Z</time>
      </trkpt>
      <trkpt lat="46.90942" lon="-0.96721">
        <ele>209</ele>
        <time>2010-01-01T02:18:13Z</time>
      </trkpt>
      <trkpt lat="46.9091" lon="-0.96708">
        <ele>208</ele>
        <time>2010-01-01T02:18:19Z</time>
      </trkpt>
      <trkpt lat="46.90884" lon="-0.96705">
        <ele>208</ele>
        <time>2010-01-01T02:18:23Z</time>
      </trkpt>
      <trkpt lat="46.90863" lon="-0.96709">
        <ele>208</ele>
        <time>2010-01-01T02:18:27Z</time>
      </trkpt>
      <trkpt lat="46.90852" lon="-0.96714">
        <ele>208</ele>
        <time>2010-01-01T02:18:28Z</time>
      </trkpt>
      <trkpt lat="46.90717" lon="-0.96814">
        <ele>206</ele>
        <time>2010-01-01T02:18:54Z</time>
      </trkpt>
      <trkpt lat="46.90702" lon="-0.96823">
        <ele>205</ele>
        <time>2010-01-01T02:18:56Z</time>
      </trkpt>
      <trkpt lat="46.90581" lon="-0.96851">
        <ele>199</ele>
        <time>2010-01-01T02:19:17Z</time>
      </trkpt>
      <trkpt lat="46.90551" lon="-0.96863">
        <ele>198</ele>
        <time>2010-01-01T02:19:22Z</time>
      </trkpt>
      <trkpt lat="46.90496" lon="-0.96901">
        <ele>198</ele>
        <time>2010-01-01T02:19:32Z</time>
      </trkpt>
      <trkpt lat="46.90395" lon="-0.9693">
        <ele>199</ele>
        <time>2010-01-01T02:19:49Z</time>
      </trkpt>
      <trkpt lat="46.90288" lon="-0.96966">
        <ele>199</ele>
        <time>2010-01-01T02:20:08Z</time>
      </trkpt>
      <trkpt lat="46.90271" lon="-0.96967">
        <ele>199</ele>
        <time>2010-01-01T02:20:10Z</time>
      </trkpt>
      <trkpt lat="46.90226" lon="-0.96937">
        <ele>197</ele>
        <time>2010-01-01T02:20:19Z</time>
      </trkpt>
      <trkpt lat="46.90199" lon="-0.96916">
        <ele>196</ele>
        <time>2010-01-01T02:20:24Z</time>
      </trkpt>
      <trkpt lat="46.90146" lon="-0.96867">
        <ele>195</ele>
        <time>2010-01-01T02:20:34Z</time>
      </trkpt>
      <trkpt lat="46.90084" lon="-0.96799">
        <ele>195</ele>
        <time>2010-01-01T02:20:47Z</time>
      </trkpt>
      <trkpt lat="46.90043" lon="-0.96758">
        <ele>195</ele>
        <time>2010-01-01T02:20:56Z</time>
      </trkpt>
      <trkpt lat="46.90004" lon="-0.96728">
        <ele>196</ele>
        <time>2010-01-01T02:21:03Z</time>
      </trkpt>
      <trkpt lat="46.89972" lon="-0.96707">
        <ele>198</ele>
        <time>2010-01-01T02:21:09Z</time>
      </trkpt>
      <trkpt lat="46.89898" lon="-0.96671">
        <ele>201</ele>
        <time>2010-01-01T02:21:22Z</time>
      </trkpt>
      <trkpt lat="46.89813" lon="-0.96587">
        <ele>206</ele>
        <time>2010-01-01T02:21:39Z</time>
      </trkpt>
      <trkpt lat="46.89801" lon="-0.96582">
        <ele>207</ele>
        <time>2010-01-01T02:21:41Z</time>
      </trkpt>
      <trkpt lat="46.89789" lon="-0.9658">
        <ele>207</ele>
        <time>2010-01-01T02:21:43Z</time>
      </trkpt>
      <trkpt lat="46.89705" lon="-0.96624">
        <ele>211</ele>
        <time>2010-01-01T02:21:58Z</time>
      </trkpt>
      <trkpt lat="46.89642" lon="-0.96646">
        <ele>214</ele>
        <time>2010-01-01T02:22:09Z</time>
      </trkpt>
      <trkpt lat="46.89632" lon="-0.96654">
        <ele>214</ele>
        <time>2010-01-01T02:22:10Z</time>
      </trkpt>
      <trkpt lat="46.89536" lon="-0.96799">
        <ele>222</ele>
        <time>2010-01-01T02:22:34Z</time>
      </trkpt>
      <trkpt lat="46.89411" lon="-0.97001">
        <ele>228</ele>
        <time>2010-01-01T02:23:05Z</time>
      </trkpt>
      <trkpt lat="46.89383" lon="-0.97036">
        <ele>227</ele>
        <time>2010-01-01T02:23:11Z</time>
      </trkpt>
      <trkpt lat="46.89292" lon="-0.97081">
        <ele>228</ele>
        <time>2010-01-01T02:23:27Z</time>
      </trkpt>
      <trkpt lat="46.8925" lon="-0.97096">
        <ele>230</ele>
        <time>2010-01-01T02:23:34Z</time>
      </trkpt>
      <trkpt lat="46.89212" lon="-0.97095">
        <ele>230</ele>
        <time>2010-01-01T02:23:40Z</time>
      </trkpt>
      <trkpt lat="46.89173" lon="-0.9711">
        <ele>230</ele>
        <time>2010-01-01T02:23:47Z</time>
      </trkpt>
      <trkpt lat="46.89148" lon="-0.97132">
        <ele>231</ele>
        <time>2010-01-01T02:23:52Z</time>
      </trkpt>
      <trkpt lat="46.89086" lon="-0.97193">
        <ele>234</ele>
        <time>2010-01-01T02:24:04Z</time>
      </trkpt>
      <trkpt lat="46.89052" lon="-0.97216">
        <ele>235</ele>
        <time>2010-01-01T02:24:11Z</time>
      </trkpt>
      <trkpt lat="46.88998" lon="-0.9724">
        <ele>237</ele>
        <time>2010-01-01T02:24:20Z</time>
      </trkpt>
      <trkpt lat="46.88979" lon="-0.97241">
        <ele>237</ele>
        <time>2010-01-01T02:24:23Z</time>
      </trkpt>
      <trkpt lat="46.88911" lon="-0.9724">
        <ele>236</ele>
        <time>2010-01-01T02:24:35Z</time>
      </trkpt>
      <trkpt lat="46.88876" lon="-0.97231">
        <ele>234</ele>
        <time>2010-01-01T02:24:40Z</time>
      </trkpt>
      <trkpt lat="46.88855" lon="-0.97223">
        <ele>233</ele>
        <time>2010-01-01T02:24:44Z</time>
      </trkpt>
      <trkpt lat="46.88765" lon="-0.97178">
        <ele>228</ele>
        <time>2010-01-01T02:25:00Z</time>
      </trkpt>
      <trkpt lat="46.88714" lon="-0.97143">
        <ele>225</ele>
        <time>2010-01-01T02:25:09Z</time>
      </trkpt>
      <trkpt lat="46.88669" lon="-0.97106">
        <ele>225</ele>
        <time>2010-01-01T02:25:18Z</time>
      </trkpt>
      <trkpt lat="46.88638" lon="-0.97074">
        <ele>225</ele>
        <time>2010-01-01T02:25:24Z</time>
      </trkpt>
      <trkpt lat="46.88575" lon="-0.96995">
        <ele>227</ele>
        <time>2010-01-01T02:25:38Z</time>
      </trkpt>
      <trkpt lat="46.88542" lon="-0.96964">
        <ele>226</ele>
        <time>2010-01-01T02:25:45Z</time>
      </trkpt>
      <trkpt lat="46.88464" lon="-0.96865">
        <ele>222</ele>
        <time>2010-01-01T02:26:02Z</time>
      </trkpt>
      <trkpt lat="46.88449" lon="-0.96874">
        <ele>223</ele>
        <time>2010-01-01T02:26:05Z</time>
      </trkpt>
      <trkpt lat="46.88448" lon="-0.96874">
        <ele>223</ele>
        <time>2010-01-01T02:26:05Z</time>
      </trkpt>
      <trkpt lat="46.88403" lon="-0.96899">
        <ele>224</ele>
        <time>2010-01-01T02:26:13Z</time>
      </trkpt>
      <trkpt lat="46.88343" lon="-0.96996">
        <ele>221</ele>
        <time>2010-01-01T02:26:28Z</time>
      </trkpt>
      <trkpt lat="46.88252" lon="-0.97133">
        <ele>213</ele>
        <time>2010-01-01T02:26:49Z</time>
      </trkpt>
      <trkpt lat="46.88216" lon="-0.97205">
        <ele>206</ele>
        <time>2010-01-01T02:27:00Z</time>
      </trkpt>
      <trkpt lat="46.8819" lon="-0.97264">
        <ele>199</ele>
        <time>2010-01-01T02:27:08Z</time>
      </trkpt>
      <trkpt lat="46.88181" lon="-0.97291">
        <ele>197</ele>
        <time>2010-01-01T02:27:11Z</time>
      </trkpt>
      <trkpt lat="46.88175" lon="-0.97327">
        <ele>196</ele>
        <time>2010-01-01T02:27:15Z</time>
      </trkpt>
      <trkpt lat="46.88158" lon="-0.97452">
        <ele>187</ele>
        <time>2010-01-01T02:27:30Z</time>
      </trkpt>
      <trkpt lat="46.88147" lon="-0.97501">
        <ele>185</ele>
        <time>2010-01-01T02:27:36Z</time>
      </trkpt>
      <trkpt lat="46.88114" lon="-0.97597">
        <ele>181</ele>
        <time>2010-01-01T02:27:48Z</time>
      </trkpt>
      <trkpt lat="46.88082" lon="-0.97668">
        <ele>176</ele>
        <time>2010-01-01T02:27:58Z</time>
      </trkpt>
      <trkpt lat="46.88058" lon="-0.97763">
        <ele>172</ele>
        <time>2010-01-01T02:28:09Z</time>
      </trkpt>
      <trkpt lat="46.88053" lon="-0.97771">
        <ele>172</ele>
        <time>2010-01-01T02:28:10Z</time>
      </trkpt>
      <trkpt lat="46.88044" lon="-0.9778">
        <ele>171</ele>
        <time>2010-01-01T02:28:12Z</time>
      </trkpt>
      <trkpt lat="46.88027" lon="-0.97783">
        <ele>169</ele>
        <time>2010-01-01T02:28:15Z</time>
      </trkpt>
      <trkpt lat="46.87964" lon="-0.97787">
        <ele>167</ele>
        <time>2010-01-01T02:28:26Z</time>
      </trkpt>
      <trkpt lat="46.87912" lon="-0.97803">
        <ele>168</ele>
        <time>2010-01-01T02:28:34Z</time>
      </trkpt>
      <trkpt lat="46.87832" lon="-0.97838">
        <ele>170</ele>
        <time>2010-01-01T02:28:48Z</time>
      </trkpt>
      <trkpt lat="46.87808" lon="-0.97846">
        <ele>171</ele>
        <time>2010-01-01T02:28:52Z</time>
      </trkpt>
      <trkpt lat="46.87787" lon="-0.97852">
        <ele>171</ele>
        <time>2010-01-01T02:28:56Z</time>
      </trkpt>
      <trkpt lat="46.87744" lon="-0.97856">
        <ele>172</ele>
        <time>2010-01-01T02:29:03Z</time>
      </trkpt>
      <trkpt lat="46.87708" lon="-0.97863">
        <ele>171</ele>
        <time>2010-01-01T02:29:09Z</time>
      </trkpt>
      <trkpt lat="46.87689" lon="-0.97871">
        <ele>171</ele>
        <time>2010-01-01T02:29:13Z</time>
      </trkpt>
      <trkpt lat="46.87668" lon="-0.97888">
        <ele>170</ele>
        <time>2010-01-01T02:29:17Z</time>
      </trkpt>
      <trkpt lat="46.87605" lon="-0.97953">
        <ele>167</ele>
        <time>2010-01-01T02:29:29Z</time>
      </trkpt>
      <trkpt lat="46.87576" lon="-0.97976">
        <ele>166</ele>
        <time>2010-01-01T02:29:35Z</time>
      </trkpt>
      <trkpt lat="46.87512" lon="-0.98006">
        <ele>164</ele>
        <time>2010-01-01T02:29:46Z</time>
      </trkpt>
      <trkpt lat="46.87441" lon="-0.98034">
        <ele>164</ele>
        <time>2010-01-01T02:29:58Z</time>
      </trkpt>
      <trkpt lat="46.87422" lon="-0.98048">
        <ele>163</ele>
        <time>2010-01-01T02:30:02Z</time>
      </trkpt>
      <trkpt lat="46.87394" lon="-0.98078">
        <ele>161</ele>
        <time>2010-01-01T02:30:08Z</time>
      </trkpt>
      <trkpt lat="46.87378" lon="-0.98099">
        <ele>160</ele>
        <time>2010-01-01T02:30:11Z</time>
      </trkpt>
      <trkpt lat="46.87405" lon="-0.98147">
        <ele>162</ele>
        <time>2010-01-01T02:30:18Z</time>
      </trkpt>
      <trkpt lat="46.87406" lon="-0.98158">
        <ele>162</ele>
        <time>2010-01-01T02:30:20Z</time>
      </trkpt>
      <trkpt lat="46.87392" lon="-0.98221">
        <ele>159</ele>
        <time>2010-01-01T02:30:27Z</time>
      </trkpt>
      <trkpt lat="46.87388" lon="-0.98249">
        <ele>157</ele>
        <time>2010-01-01T02:30:31Z</time>
      </trkpt>
      <trkpt lat="46.87382" lon="-0.98306">
        <ele>155</ele>
        <time>2010-01-01T02:30:37Z</time>
      </trkpt>
      <trkpt lat="46.87382" lon="-0.98372">
        <ele>152</ele>
        <time>2010-01-01T02:30:45Z</time>
      </trkpt>
      <trkpt lat="46.87386" lon="-0.98457">
        <ele>150</ele>
        <time>2010-01-01T02:30:54Z</time>
      </trkpt>
      <trkpt lat="46.87407" lon="-0.98624">
        <ele>146</ele>
        <time>2010-01-01T02:31:14Z</time>
      </trkpt>
      <trkpt lat="46.8741" lon="-0.98662">
        <ele>145</ele>
        <time>2010-01-01T02:31:18Z</time>
      </trkpt>
      <trkpt lat="46.87402" lon="-0.98749">
        <ele>141</ele>
        <time>2010-01-01T02:31:28Z</time>
      </trkpt>
      <trkpt lat="46.87397" lon="-0.98839">
        <ele>139</ele>
        <time>2010-01-01T02:31:38Z</time>
      </trkpt>
      <trkpt lat="46.87404" lon="-0.98906">
        <ele>138</ele>
        <time>2010-01-01T02:31:46Z</time>
      </trkpt>
      <trkpt lat="46.87414" lon="-0.98963">
        <ele>137</ele>
        <time>2010-01-01T02:31:53Z</time>
      </trkpt>
      <trkpt lat="46.87414" lon="-0.99011">
        <ele>137</ele>
        <time>2010-01-01T02:31:58Z</time>
      </trkpt>
      <trkpt lat="46.87411" lon="-0.99053">
        <ele>135</ele>
        <time>2010-01-01T02:32:03Z</time>
      </trkpt>
      <trkpt lat="46.874" lon="-0.99117">
        <ele>133</ele>
        <time>2010-01-01T02:32:11Z</time>
      </trkpt>
      <trkpt lat="46.8739" lon="-0.99143">
        <ele>133</ele>
        <time>2010-01-01T02:32:14Z</time>
      </trkpt>
      <trkpt lat="46.87383" lon="-0.99173">
        <ele>132</ele>
        <time>2010-01-01T02:32:18Z</time>
      </trkpt>
      <trkpt lat="46.87381" lon="-0.99222">
        <ele>131</ele>
        <time>2010-01-01T02:32:23Z</time>
      </trkpt>
      <trkpt lat="46.87377" lon="-0.99299">
        <ele>128</ele>
        <time>2010-01-01T02:32:32Z</time>
      </trkpt>
      <trkpt lat="46.87381" lon="-0.99333">
        <ele>127</ele>
        <time>2010-01-01T02:32:36Z</time>
      </trkpt>
      <trkpt lat="46.874" lon="-0.99394">
        <ele>127</ele>
        <time>2010-01-01T02:32:44Z</time>
      </trkpt>
      <trkpt lat="46.87407" lon="-0.99427">
        <ele>127</ele>
        <time>2010-01-01T02:32:48Z</time>
      </trkpt>
      <trkpt lat="46.87411" lon="-0.99467">
        <ele>127</ele>
        <time>2010-01-01T02:32:52Z</time>
      </trkpt>
      <trkpt lat="46.87367" lon="-0.99456">
        <ele>125</ele>
        <time>2010-01-01T02:33:00Z</time>
      </trkpt>
      <trkpt lat="46.8734" lon="-0.99478">
        <ele>124</ele>
        <time>2010-01-01T02:33:05Z</time>
      </trkpt>
      <trkpt lat="46.87333" lon="-0.99496">
        <ele>123</ele>
        <time>2010-01-01T02:33:07Z</time>
      </trkpt>
      <trkpt lat="46.87309" lon="-0.99496">
        <ele>122</ele>
        <time>2010-01-01T02:33:11Z</time>
      </trkpt>
      <trkpt lat="46.87303" lon="-0.99499">
        <ele>122</ele>
        <time>2010-01-01T02:33:12Z</time>
      </trkpt>
      <trkpt lat="46.87298" lon="-0.99507">
        <ele>122</ele>
        <time>2010-01-01T02:33:13Z</time>
      </trkpt>
      <trkpt lat="46.87295" lon="-0.99552">
        <ele>121</ele>
        <time>2010-01-01T02:33:19Z</time>
      </trkpt>
      <trkpt lat="46.87288" lon="-0.99586">
        <ele>120</ele>
        <time>2010-01-01T02:33:23Z</time>
      </trkpt>
      <trkpt lat="46.87288" lon="-0.99604">
        <ele>120</ele>
        <time>2010-01-01T02:33:25Z</time>
      </trkpt>
      <trkpt lat="46.87284" lon="-0.99619">
        <ele>119</ele>
        <time>2010-01-01T02:33:27Z</time>
      </trkpt>
      <trkpt lat="46.87279" lon="-0.99657">
        <ele>117</ele>
        <time>2010-01-01T02:33:31Z</time>
      </trkpt>
      <trkpt lat="46.87274" lon="-0.99738">
        <ele>115</ele>
        <time>2010-01-01T02:33:40Z</time>
      </trkpt>
      <trkpt lat="46.87268" lon="-0.99762">
        <ele>114</ele>
        <time>2010-01-01T02:33:43Z</time>
      </trkpt>
      <trkpt lat="46.87257" lon="-0.99782">
        <ele>113</ele>
        <time>2010-01-01T02:33:46Z</time>
      </trkpt>
      <trkpt lat="46.8726" lon="-0.99828">
        <ele>112</ele>
        <time>2010-01-01T02:33:51Z</time>
      </trkpt>
      <trkpt lat="46.87249" lon="-0.99905">
        <ele>109</ele>
        <time>2010-01-01T02:34:00Z</time>
      </trkpt>
      <trkpt lat="46.87246" lon="-0.99944">
        <ele>109</ele>
        <time>2010-01-01T02:34:05Z</time>
      </trkpt>
      <trkpt lat="46.87237" lon="-0.99961">
        <ele>109</ele>
        <time>2010-01-01T02:34:07Z</time>
      </trkpt>
      <trkpt lat="46.87217" lon="-0.9997">
        <ele>108</ele>
        <time>2010-01-01T02:34:11Z</time>
      </trkpt>
      <trkpt lat="46.87202" lon="-0.99982">
        <ele>108</ele>
        <time>2010-01-01T02:34:14Z</time>
      </trkpt>
      <trkpt lat="46.87206" lon="-0.99996">
        <ele>108</ele>
        <time>2010-01-01T02:34:15Z</time>
      </trkpt>
      <trkpt lat="46.87145" lon="-1.00013">
        <ele>107</ele>
        <time>2010-01-01T02:34:26Z</time>
      </trkpt>
      <trkpt lat="46.87121" lon="-1.00026">
        <ele>108</ele>
        <time>2010-01-01T02:34:30Z</time>
      </trkpt>
      <trkpt lat="46.87098" lon="-1.00072">
        <ele>108</ele>
        <time>2010-01-01T02:34:36Z</time>
      </trkpt>
      <trkpt lat="46.87076" lon="-1.00097">
        <ele>108</ele>
        <time>2010-01-01T02:34:41Z</time>
      </trkpt>
      <trkpt lat="46.86983" lon="-1.00131">
        <ele>110</ele>
        <time>2010-01-01T02:34:57Z</time>
      </trkpt>
      <trkpt lat="46.87002" lon="-1.00378">
        <ele>104</ele>
        <time>2010-01-01T02:35:25Z</time>
      </trkpt>
      <trkpt lat="46.87011" lon="-1.00449">
        <ele>104</ele>
        <time>2010-01-01T02:35:34Z</time>
      </trkpt>
      <trkpt lat="46.87029" lon="-1.00515">
        <ele>105</ele>
        <time>2010-01-01T02:35:42Z</time>
      </trkpt>
      <trkpt lat="46.87037" lon="-1.00539">
        <ele>105</ele>
        <time>2010-01-01T02:35:45Z</time>
      </trkpt>
      <trkpt lat="46.86997" lon="-1.00567">
        <ele>106</ele>
        <time>2010-01-01T02:35:52Z</time>
      </trkpt>
      <trkpt lat="46.86936" lon="-1.00597">
        <ele>111</ele>
        <time>2010-01-01T02:36:03Z</time>
      </trkpt>
      <trkpt lat="46.86948" lon="-1.00668">
        <ele>109</ele>
        <time>2010-01-01T02:36:11Z</time>
      </trkpt>
      <trkpt lat="46.86902" lon="-1.00643">
        <ele>111</ele>
        <time>2010-01-01T02:36:19Z</time>
      </trkpt>
      <trkpt lat="46.86834" lon="-1.0063">
        <ele>112</ele>
        <time>2010-01-01T02:36:31Z</time>
      </trkpt>
      <trkpt lat="46.86764" lon="-1.00648">
        <ele>111</ele>
        <time>2010-01-01T02:36:43Z</time>
      </trkpt>
      <trkpt lat="46.86721" lon="-1.00665">
        <ele>111</ele>
        <time>2010-01-01T02:36:50Z</time>
      </trkpt>
      <trkpt lat="46.86595" lon="-1.00621">
        <ele>116</ele>
        <time>2010-01-01T02:37:12Z</time>
      </trkpt>
      <trkpt lat="46.86523" lon="-1.00577">
        <ele>118</ele>
        <time>2010-01-01T02:37:25Z</time>
      </trkpt>
      <trkpt lat="46.86488" lon="-1.00561">
        <ele>119</ele>
        <time>2010-01-01T02:37:31Z</time>
      </trkpt>
      <trkpt lat="46.86473" lon="-1.00557">
        <ele>120</ele>
        <time>2010-01-01T02:37:33Z</time>
      </trkpt>
    </trkseg>
  </trk>
</gpx>